UAE7MY OMDB-YPPH
Flight info
| Callsign | UAE7MY |
|---|---|
| Flight time | 10h 19m |
| Altitude | 37000 |
| Route | ANVIX L223 TARDI N629 GIDAN P570 KITAL L894 BIBGO DCT LAVOX/N0488F390 DCT KADAP DCT 0500S08730E DCT BEBIM DCT 15S100E/N0478F410 18S105E DCT WONSA DCT CAR B469 TOPIR/N0475F400 L514 AVPAL Q38 JULIM |
| Aircraft | A359/H-SDE2E3GHIJ3J4J5LM1ORWXY/LB1D1 |
Departure
| Time | 2026-04-23 21:44 |
|---|---|
| Airport | Dubai International Airport (OMDB) |
Arrival
| Time | 2026-04-24 08:04 |
|---|---|
| Airport | Perth International Airport (YPPH) |
| Time | Latitude | Longitude | Altitude | Speed | Heading |
|---|---|---|---|---|---|
| 2026-04-23 21:05 | 25.25090 | 55.35925 | 28 ft | 0 kts | 211° |
| 2026-04-23 21:26 | 25.25095 | 55.35928 | 28 ft | 2 kts | 211° |
| 2026-04-23 21:27 | 25.25111 | 55.35939 | 28 ft | 3 kts | 211° |
| 2026-04-23 21:27 | 25.25128 | 55.35951 | 26 ft | 3 kts | 219° |
| 2026-04-23 21:27 | 25.25141 | 55.35965 | 25 ft | 3 kts | 234° |
| 2026-04-23 21:27 | 25.25151 | 55.35984 | 26 ft | 3 kts | 253° |
| 2026-04-23 21:28 | 25.25155 | 55.36005 | 26 ft | 3 kts | 277° |
| 2026-04-23 21:28 | 25.25150 | 55.36023 | 25 ft | 2 kts | 300° |
| 2026-04-23 21:28 | 25.25144 | 55.36035 | 26 ft | 3 kts | 302° |
| 2026-04-23 21:28 | 25.25134 | 55.36053 | 26 ft | 3 kts | 302° |
| 2026-04-23 21:29 | 25.25123 | 55.36071 | 26 ft | 2 kts | 302° |
| 2026-04-23 21:29 | 25.25121 | 55.36076 | 27 ft | 5 kts | 302° |
| 2026-04-23 21:33 | 25.25126 | 55.36067 | 25 ft | 5 kts | 302° |
| 2026-04-23 21:33 | 25.25157 | 55.36013 | 26 ft | 12 kts | 301° |
| 2026-04-23 21:34 | 25.25209 | 55.35919 | 28 ft | 15 kts | 301° |
| 2026-04-23 21:34 | 25.25268 | 55.35817 | 28 ft | 16 kts | 301° |
| 2026-04-23 21:34 | 25.25328 | 55.35709 | 28 ft | 17 kts | 303° |
| 2026-04-23 21:34 | 25.25391 | 55.35595 | 28 ft | 18 kts | 302° |
| 2026-04-23 21:35 | 25.25458 | 55.35476 | 28 ft | 18 kts | 301° |
| 2026-04-23 21:35 | 25.25526 | 55.35354 | 28 ft | 19 kts | 301° |
| 2026-04-23 21:35 | 25.25593 | 55.35233 | 28 ft | 18 kts | 302° |
| 2026-04-23 21:35 | 25.25661 | 55.35144 | 28 ft | 9 kts | 345° |
| 2026-04-23 21:36 | 25.25747 | 55.35201 | 28 ft | 9 kts | 34° |
| 2026-04-23 21:36 | 25.25807 | 55.35240 | 28 ft | 11 kts | 31° |
| 2026-04-23 21:36 | 25.25881 | 55.35288 | 28 ft | 13 kts | 27° |
| 2026-04-23 21:37 | 25.25956 | 55.35342 | 28 ft | 14 kts | 34° |
| 2026-04-23 21:37 | 25.26007 | 55.35427 | 28 ft | 13 kts | 79° |
| 2026-04-23 21:37 | 25.25999 | 55.35528 | 28 ft | 13 kts | 109° |
| 2026-04-23 21:37 | 25.25953 | 55.35621 | 28 ft | 14 kts | 121° |
| 2026-04-23 21:38 | 25.25899 | 55.35717 | 28 ft | 15 kts | 122° |
| 2026-04-23 21:38 | 25.25841 | 55.35822 | 28 ft | 16 kts | 122° |
| 2026-04-23 21:38 | 25.25778 | 55.35929 | 28 ft | 17 kts | 123° |
| 2026-04-23 21:38 | 25.25716 | 55.36043 | 28 ft | 18 kts | 122° |
| 2026-04-23 21:39 | 25.25649 | 55.36161 | 28 ft | 18 kts | 121° |
| 2026-04-23 21:39 | 25.25581 | 55.36282 | 28 ft | 19 kts | 122° |
| 2026-04-23 21:39 | 25.25509 | 55.36410 | 28 ft | 21 kts | 122° |
| 2026-04-23 21:39 | 25.25430 | 55.36549 | 28 ft | 22 kts | 122° |
| 2026-04-23 21:40 | 25.25346 | 55.36699 | 28 ft | 24 kts | 121° |
| 2026-04-23 21:40 | 25.25259 | 55.36855 | 28 ft | 24 kts | 121° |
| 2026-04-23 21:40 | 25.25172 | 55.37009 | 28 ft | 24 kts | 122° |
| 2026-04-23 21:40 | 25.25085 | 55.37162 | 28 ft | 23 kts | 122° |
| 2026-04-23 21:41 | 25.25000 | 55.37313 | 28 ft | 23 kts | 121° |
| 2026-04-23 21:41 | 25.24918 | 55.37458 | 28 ft | 23 kts | 122° |
| 2026-04-23 21:41 | 25.24837 | 55.37607 | 28 ft | 23 kts | 123° |
| 2026-04-23 21:41 | 25.24754 | 55.37751 | 28 ft | 22 kts | 121° |
| 2026-04-23 21:42 | 25.24711 | 55.37840 | 28 ft | 6 kts | 99° |
| 2026-04-23 21:42 | 25.24727 | 55.37879 | 28 ft | 4 kts | 37° |
| 2026-04-23 21:42 | 25.24766 | 55.37908 | 28 ft | 9 kts | 34° |
| 2026-04-23 21:42 | 25.24826 | 55.37951 | 28 ft | 9 kts | 26° |
| 2026-04-23 21:43 | 25.24848 | 55.37942 | 28 ft | 3 kts | 318° |
| 2026-04-23 21:43 | 25.24862 | 55.37921 | 28 ft | 6 kts | 302° |
| 2026-04-23 21:43 | 25.24864 | 55.37916 | 28 ft | 1 kts | 302° |
| 2026-04-23 21:43 | 25.24978 | 55.37716 | 28 ft | 62 kts | 301° |
| 2026-04-23 21:44 | 25.25303 | 55.37135 | 28 ft | 115 kts | 301° |
| 2026-04-23 21:44 | 25.25805 | 55.36226 | 29 ft | 161 kts | 302° |
| 2026-04-23 21:44 | 25.26447 | 55.35062 | 258 ft | 182 kts | 302° |
| 2026-04-23 21:44 | 25.27068 | 55.33899 | 925 ft | 173 kts | 302° |
| 2026-04-23 21:45 | 25.27694 | 55.32726 | 1367 ft | 183 kts | 302° |
| 2026-04-23 21:45 | 25.28384 | 55.31496 | 1539 ft | 195 kts | 304° |
| 2026-04-23 21:45 | 25.29067 | 55.30142 | 1689 ft | 209 kts | 293° |
| 2026-04-23 21:45 | 25.29155 | 55.28501 | 1760 ft | 226 kts | 255° |
| 2026-04-23 21:46 | 25.28551 | 55.26842 | 1975 ft | 237 kts | 244° |
| 2026-04-23 21:46 | 25.27818 | 55.25200 | 2359 ft | 240 kts | 243° |
| 2026-04-23 21:46 | 25.27079 | 55.23540 | 2797 ft | 240 kts | 244° |
| 2026-04-23 21:46 | 25.26356 | 55.21885 | 3264 ft | 239 kts | 244° |
| 2026-04-23 21:47 | 25.25641 | 55.20221 | 3699 ft | 240 kts | 244° |
| 2026-04-23 21:47 | 25.24892 | 55.18570 | 4115 ft | 241 kts | 238° |
| 2026-04-23 21:47 | 25.23747 | 55.17238 | 4520 ft | 242 kts | 211° |
| 2026-04-23 21:47 | 25.22131 | 55.16693 | 4814 ft | 249 kts | 183° |
| 2026-04-23 21:48 | 25.20389 | 55.16787 | 5200 ft | 253 kts | 172° |
| 2026-04-23 21:48 | 25.18735 | 55.17474 | 5571 ft | 259 kts | 147° |
| 2026-04-23 21:48 | 25.17500 | 55.18970 | 5800 ft | 272 kts | 123° |
| 2026-04-23 21:48 | 25.16582 | 55.20839 | 6055 ft | 282 kts | 118° |
| 2026-04-23 21:49 | 25.15692 | 55.22787 | 6415 ft | 286 kts | 119° |
| 2026-04-23 21:49 | 25.14782 | 55.24751 | 6805 ft | 289 kts | 120° |
| 2026-04-23 21:49 | 25.13851 | 55.26728 | 7235 ft | 291 kts | 120° |
| 2026-04-23 21:49 | 25.12907 | 55.28716 | 7644 ft | 294 kts | 120° |
| 2026-04-23 21:50 | 25.11951 | 55.30716 | 8099 ft | 295 kts | 120° |
| 2026-04-23 21:50 | 25.10988 | 55.32722 | 8539 ft | 297 kts | 120° |
| 2026-04-23 21:50 | 25.10046 | 55.34758 | 8992 ft | 299 kts | 118° |
| 2026-04-23 21:50 | 25.09191 | 55.36856 | 9462 ft | 301 kts | 116° |
| 2026-04-23 21:51 | 25.08344 | 55.38973 | 9910 ft | 303 kts | 117° |
| 2026-04-23 21:51 | 25.07482 | 55.41105 | 10309 ft | 305 kts | 117° |
| 2026-04-23 21:51 | 25.06622 | 55.43260 | 10624 ft | 312 kts | 116° |
| 2026-04-23 21:51 | 25.05766 | 55.45506 | 10800 ft | 323 kts | 115° |
| 2026-04-23 21:52 | 25.04884 | 55.47822 | 11001 ft | 333 kts | 115° |
| 2026-04-23 21:52 | 25.03967 | 55.50218 | 11192 ft | 344 kts | 115° |
| 2026-04-23 21:52 | 25.03034 | 55.52648 | 11381 ft | 354 kts | 115° |
| 2026-04-23 21:52 | 25.02015 | 55.55192 | 11578 ft | 362 kts | 119° |
| 2026-04-23 21:53 | 25.00781 | 55.57649 | 11761 ft | 370 kts | 123° |
| 2026-04-23 21:53 | 24.99466 | 55.60085 | 11967 ft | 378 kts | 123° |
| 2026-04-23 21:53 | 24.98105 | 55.62592 | 12252 ft | 383 kts | 123° |
| 2026-04-23 21:53 | 24.96714 | 55.65158 | 12598 ft | 386 kts | 123° |
| 2026-04-23 21:54 | 24.95351 | 55.67674 | 12947 ft | 389 kts | 123° |
| 2026-04-23 21:54 | 24.93912 | 55.70210 | 13283 ft | 391 kts | 127° |
| 2026-04-23 21:54 | 24.92331 | 55.72660 | 13635 ft | 393 kts | 128° |
| 2026-04-23 21:54 | 24.90711 | 55.75100 | 13952 ft | 396 kts | 129° |
| 2026-04-23 21:55 | 24.89076 | 55.77558 | 14241 ft | 398 kts | 128° |
| 2026-04-23 21:55 | 24.87437 | 55.80024 | 14550 ft | 401 kts | 128° |
| 2026-04-23 21:55 | 24.85784 | 55.82513 | 14850 ft | 404 kts | 128° |
| 2026-04-23 21:55 | 24.84122 | 55.85015 | 15176 ft | 406 kts | 128° |
| 2026-04-23 21:56 | 24.82439 | 55.87535 | 15475 ft | 409 kts | 128° |
| 2026-04-23 21:56 | 24.80733 | 55.90048 | 15782 ft | 412 kts | 128° |
| 2026-04-23 21:56 | 24.79006 | 55.92577 | 16059 ft | 414 kts | 129° |
| 2026-04-23 21:56 | 24.77125 | 55.94977 | 16402 ft | 415 kts | 135° |
| 2026-04-23 21:57 | 24.75087 | 55.97229 | 16717 ft | 417 kts | 138° |
| 2026-04-23 21:57 | 24.72961 | 55.99409 | 17010 ft | 419 kts | 140° |
| 2026-04-23 21:57 | 24.70794 | 56.01568 | 17304 ft | 421 kts | 140° |
| 2026-04-23 21:57 | 24.68616 | 56.03733 | 17625 ft | 424 kts | 140° |
| 2026-04-23 21:58 | 24.66432 | 56.05924 | 17928 ft | 426 kts | 139° |
| 2026-04-23 21:58 | 24.64249 | 56.08136 | 18237 ft | 428 kts | 139° |
| 2026-04-23 21:58 | 24.62062 | 56.10372 | 18533 ft | 429 kts | 139° |
| 2026-04-23 21:58 | 24.59879 | 56.12614 | 18819 ft | 431 kts | 138° |
| 2026-04-23 21:59 | 24.57719 | 56.14910 | 19110 ft | 433 kts | 135° |
| 2026-04-23 21:59 | 24.55675 | 56.17341 | 19381 ft | 434 kts | 133° |
| 2026-04-23 21:59 | 24.53670 | 56.19837 | 19624 ft | 435 kts | 133° |
| 2026-04-23 22:00 | 24.49701 | 56.24889 | 20179 ft | 438 kts | 132° |
| 2026-04-23 22:00 | 24.47712 | 56.27431 | 20437 ft | 440 kts | 132° |
| 2026-04-23 22:00 | 24.45713 | 56.29985 | 20700 ft | 441 kts | 132° |
| 2026-04-23 22:00 | 24.43713 | 56.32537 | 21009 ft | 441 kts | 132° |
| 2026-04-23 22:01 | 24.41708 | 56.35090 | 21275 ft | 442 kts | 133° |
| 2026-04-23 22:01 | 24.39695 | 56.37650 | 21517 ft | 444 kts | 133° |
| 2026-04-23 22:01 | 24.37673 | 56.40217 | 21752 ft | 446 kts | 133° |
| 2026-04-23 22:01 | 24.35645 | 56.42789 | 21991 ft | 447 kts | 133° |
| 2026-04-23 22:02 | 24.33606 | 56.45373 | 22227 ft | 448 kts | 133° |
| 2026-04-23 22:02 | 24.31592 | 56.47925 | 22462 ft | 449 kts | 133° |
| 2026-04-23 22:02 | 24.29543 | 56.50521 | 22682 ft | 451 kts | 133° |
| 2026-04-23 22:02 | 24.27544 | 56.53238 | 22907 ft | 454 kts | 129° |
| 2026-04-23 22:03 | 24.25678 | 56.56039 | 23134 ft | 456 kts | 127° |
| 2026-04-23 22:03 | 24.23880 | 56.58849 | 23349 ft | 458 kts | 127° |
| 2026-04-23 22:03 | 24.22055 | 56.61717 | 23515 ft | 460 kts | 127° |
| 2026-04-23 22:03 | 24.20210 | 56.64588 | 23689 ft | 461 kts | 127° |
| 2026-04-23 22:04 | 24.18348 | 56.67450 | 23867 ft | 463 kts | 128° |
| 2026-04-23 22:04 | 24.16459 | 56.70319 | 24027 ft | 464 kts | 128° |
| 2026-04-23 22:04 | 24.14558 | 56.73185 | 24217 ft | 466 kts | 128° |
| 2026-04-23 22:04 | 24.12646 | 56.76056 | 24377 ft | 468 kts | 128° |
| 2026-04-23 22:05 | 24.10723 | 56.78938 | 24556 ft | 469 kts | 128° |
| 2026-04-23 22:05 | 24.08794 | 56.81826 | 24725 ft | 471 kts | 128° |
| 2026-04-23 22:05 | 24.06857 | 56.84726 | 24829 ft | 472 kts | 128° |
| 2026-04-23 22:05 | 24.04920 | 56.87627 | 24864 ft | 473 kts | 128° |
| 2026-04-23 22:06 | 24.02983 | 56.90531 | 24864 ft | 473 kts | 128° |
| 2026-04-23 22:06 | 24.01043 | 56.93437 | 24861 ft | 473 kts | 128° |
| 2026-04-23 22:06 | 23.99098 | 56.96343 | 24853 ft | 473 kts | 128° |
| 2026-04-23 22:06 | 23.97151 | 56.99247 | 24861 ft | 473 kts | 128° |
| 2026-04-23 22:07 | 23.95206 | 57.02146 | 24863 ft | 473 kts | 128° |
| 2026-04-23 22:07 | 23.93313 | 57.04968 | 24862 ft | 473 kts | 128° |
| 2026-04-23 22:07 | 23.91369 | 57.07864 | 24852 ft | 473 kts | 128° |
| 2026-04-23 22:07 | 23.89420 | 57.10767 | 24860 ft | 473 kts | 128° |
| 2026-04-23 22:08 | 23.87475 | 57.13668 | 24863 ft | 473 kts | 128° |
| 2026-04-23 22:08 | 23.85527 | 57.16569 | 24848 ft | 473 kts | 128° |
| 2026-04-23 22:08 | 23.83581 | 57.19463 | 24847 ft | 473 kts | 128° |
| 2026-04-23 22:08 | 23.81635 | 57.22356 | 24863 ft | 473 kts | 128° |
| 2026-04-23 22:09 | 23.79687 | 57.25250 | 24906 ft | 474 kts | 128° |
| 2026-04-23 22:09 | 23.77730 | 57.28154 | 25090 ft | 475 kts | 128° |
| 2026-04-23 22:09 | 23.75771 | 57.31062 | 25255 ft | 476 kts | 128° |
| 2026-04-23 22:09 | 23.73806 | 57.33976 | 25438 ft | 478 kts | 128° |
| 2026-04-23 22:10 | 23.71830 | 57.36906 | 25597 ft | 480 kts | 128° |
| 2026-04-23 22:10 | 23.69814 | 57.39812 | 25765 ft | 481 kts | 130° |
| 2026-04-23 22:10 | 23.67737 | 57.42678 | 25932 ft | 482 kts | 130° |
| 2026-04-23 22:10 | 23.65632 | 57.45527 | 26112 ft | 484 kts | 130° |
| 2026-04-23 22:11 | 23.63508 | 57.48394 | 26262 ft | 486 kts | 130° |
| 2026-04-23 22:11 | 23.61387 | 57.51266 | 26430 ft | 487 kts | 130° |
| 2026-04-23 22:11 | 23.59263 | 57.54157 | 26590 ft | 489 kts | 130° |
| 2026-04-23 22:11 | 23.57136 | 57.57063 | 26793 ft | 491 kts | 130° |
| 2026-04-23 22:12 | 23.55009 | 57.59976 | 26950 ft | 493 kts | 130° |
| 2026-04-23 22:12 | 23.52875 | 57.62902 | 27130 ft | 494 kts | 130° |
| 2026-04-23 22:12 | 23.50762 | 57.65799 | 27300 ft | 496 kts | 130° |
| 2026-04-23 22:12 | 23.48614 | 57.68742 | 27524 ft | 497 kts | 130° |
| 2026-04-23 22:13 | 23.46461 | 57.71697 | 27692 ft | 499 kts | 130° |
| 2026-04-23 22:13 | 23.44295 | 57.74659 | 27840 ft | 501 kts | 130° |
| 2026-04-23 22:13 | 23.42118 | 57.77630 | 28009 ft | 502 kts | 130° |
| 2026-04-23 22:13 | 23.39934 | 57.80606 | 28217 ft | 504 kts | 130° |
| 2026-04-23 22:14 | 23.37741 | 57.83594 | 28352 ft | 506 kts | 130° |
| 2026-04-23 22:14 | 23.35538 | 57.86595 | 28536 ft | 508 kts | 129° |
| 2026-04-23 22:14 | 23.33329 | 57.89602 | 28717 ft | 510 kts | 130° |
| 2026-04-23 22:14 | 23.31108 | 57.92624 | 28842 ft | 512 kts | 130° |
| 2026-04-23 22:15 | 23.28885 | 57.95651 | 29046 ft | 513 kts | 129° |
| 2026-04-23 22:15 | 23.26657 | 57.98681 | 29240 ft | 514 kts | 129° |
| 2026-04-23 22:15 | 23.24419 | 58.01723 | 29405 ft | 516 kts | 129° |
| 2026-04-23 22:15 | 23.22243 | 58.04835 | 29536 ft | 518 kts | 126° |
| 2026-04-23 22:16 | 23.20190 | 58.08056 | 29720 ft | 519 kts | 124° |
| 2026-04-23 22:16 | 23.18234 | 58.11249 | 29886 ft | 521 kts | 124° |
| 2026-04-23 22:16 | 23.16240 | 58.14527 | 30149 ft | 517 kts | 124° |
| 2026-04-23 22:16 | 23.14244 | 58.17784 | 30219 ft | 521 kts | 124° |
| 2026-04-23 22:17 | 23.10188 | 58.24287 | 30437 ft | 525 kts | 125° |
| 2026-04-23 22:17 | 23.08124 | 58.27558 | 30650 ft | 525 kts | 125° |
| 2026-04-23 22:17 | 23.06053 | 58.30825 | 30811 ft | 526 kts | 126° |
| 2026-04-23 22:18 | 23.03936 | 58.34065 | 30982 ft | 526 kts | 129° |
| 2026-04-23 22:18 | 23.01499 | 58.37009 | 31173 ft | 524 kts | 138° |
| 2026-04-23 22:18 | 22.98684 | 58.39498 | 31323 ft | 522 kts | 147° |
| 2026-04-23 22:18 | 22.95663 | 58.41689 | 31460 ft | 522 kts | 149° |
| 2026-04-23 22:19 | 22.92582 | 58.43783 | 31611 ft | 523 kts | 150° |
| 2026-04-23 22:19 | 22.89470 | 58.45831 | 31766 ft | 523 kts | 151° |
| 2026-04-23 22:19 | 22.86350 | 58.47863 | 31920 ft | 524 kts | 151° |
| 2026-04-23 22:19 | 22.83226 | 58.49897 | 32144 ft | 523 kts | 151° |
| 2026-04-23 22:20 | 22.80117 | 58.51931 | 32345 ft | 522 kts | 151° |
| 2026-04-23 22:20 | 22.77007 | 58.53974 | 32517 ft | 522 kts | 150° |
| 2026-04-23 22:20 | 22.73905 | 58.56020 | 32721 ft | 522 kts | 150° |
| 2026-04-23 22:20 | 22.70811 | 58.58064 | 32921 ft | 521 kts | 150° |
| 2026-04-23 22:21 | 22.67722 | 58.60106 | 33124 ft | 520 kts | 150° |
| 2026-04-23 22:21 | 22.64631 | 58.62150 | 33313 ft | 520 kts | 150° |
| 2026-04-23 22:21 | 22.61547 | 58.64188 | 33506 ft | 519 kts | 150° |
| 2026-04-23 22:21 | 22.58463 | 58.66223 | 33681 ft | 519 kts | 150° |
| 2026-04-23 22:22 | 22.55383 | 58.68254 | 33858 ft | 519 kts | 150° |
| 2026-04-23 22:22 | 22.52304 | 58.70283 | 33984 ft | 519 kts | 150° |
| 2026-04-23 22:22 | 22.49257 | 58.72290 | 34094 ft | 520 kts | 150° |
| 2026-04-23 22:22 | 22.46171 | 58.74322 | 34201 ft | 520 kts | 150° |
| 2026-04-23 22:23 | 22.43038 | 58.76383 | 34314 ft | 521 kts | 150° |
| 2026-04-23 22:23 | 22.39941 | 58.78420 | 34421 ft | 521 kts | 151° |
| 2026-04-23 22:23 | 22.36840 | 58.80459 | 34528 ft | 522 kts | 151° |
| 2026-04-23 22:23 | 22.33774 | 58.82474 | 34633 ft | 523 kts | 151° |
| 2026-04-23 22:24 | 22.27554 | 58.86557 | 34842 ft | 524 kts | 151° |
| 2026-04-23 22:24 | 22.21318 | 58.90649 | 35032 ft | 525 kts | 151° |
| 2026-04-23 22:25 | 22.18190 | 58.92700 | 35135 ft | 526 kts | 151° |
| 2026-04-23 22:25 | 22.15062 | 58.94749 | 35233 ft | 526 kts | 151° |
| 2026-04-23 22:25 | 22.08797 | 58.98848 | 35430 ft | 527 kts | 151° |
| 2026-04-23 22:26 | 22.02523 | 59.02950 | 35598 ft | 528 kts | 151° |
| 2026-04-23 22:26 | 21.96227 | 59.07061 | 35745 ft | 530 kts | 151° |
| 2026-04-23 22:27 | 21.89916 | 59.11179 | 35917 ft | 531 kts | 151° |
| 2026-04-23 22:27 | 21.83593 | 59.15301 | 36075 ft | 532 kts | 151° |
| 2026-04-23 22:28 | 21.77248 | 59.19431 | 36188 ft | 533 kts | 151° |
| 2026-04-23 22:28 | 21.70901 | 59.23561 | 36349 ft | 534 kts | 151° |
| 2026-04-23 22:29 | 21.64532 | 59.27699 | 36493 ft | 535 kts | 152° |
| 2026-04-23 22:29 | 21.58159 | 59.31837 | 36619 ft | 536 kts | 152° |
| 2026-04-23 22:30 | 21.52851 | 59.35281 | 36685 ft | 538 kts | 151° |
| 2026-04-23 22:30 | 21.46443 | 59.39435 | 36833 ft | 539 kts | 151° |
| 2026-04-23 22:31 | 21.40001 | 59.43606 | 36847 ft | 543 kts | 151° |
| 2026-04-23 22:31 | 21.33518 | 59.47799 | 36845 ft | 545 kts | 151° |
| 2026-04-23 22:32 | 21.27028 | 59.51995 | 36842 ft | 545 kts | 151° |
| 2026-04-23 22:32 | 21.20535 | 59.56194 | 36843 ft | 545 kts | 151° |
| 2026-04-23 22:33 | 21.14043 | 59.60376 | 36852 ft | 545 kts | 151° |
| 2026-04-23 22:33 | 21.07541 | 59.64559 | 36839 ft | 544 kts | 151° |
| 2026-04-23 22:34 | 21.01042 | 59.68739 | 36845 ft | 546 kts | 151° |
| 2026-04-23 22:34 | 20.94531 | 59.72928 | 36843 ft | 546 kts | 151° |
| 2026-04-23 22:35 | 20.88020 | 59.77102 | 36846 ft | 546 kts | 151° |
| 2026-04-23 22:35 | 20.81520 | 59.81265 | 36839 ft | 546 kts | 151° |
| 2026-04-23 22:36 | 20.75003 | 59.85436 | 36849 ft | 547 kts | 151° |
| 2026-04-23 22:36 | 20.68474 | 59.89611 | 36854 ft | 547 kts | 151° |
| 2026-04-23 22:37 | 20.61945 | 59.93784 | 36851 ft | 547 kts | 151° |
| 2026-04-23 22:37 | 20.55418 | 59.97950 | 36847 ft | 547 kts | 151° |
| 2026-04-23 22:38 | 20.48883 | 60.02117 | 36851 ft | 547 kts | 151° |
| 2026-04-23 22:38 | 20.42344 | 60.06282 | 36856 ft | 547 kts | 151° |
| 2026-04-23 22:39 | 20.35805 | 60.10444 | 36855 ft | 547 kts | 151° |
| 2026-04-23 22:39 | 20.29266 | 60.14602 | 36846 ft | 547 kts | 151° |
| 2026-04-23 22:40 | 20.22721 | 60.18758 | 36853 ft | 548 kts | 150° |
| 2026-04-23 22:41 | 20.12897 | 60.24990 | 36853 ft | 548 kts | 150° |
| 2026-04-23 22:41 | 20.06370 | 60.29185 | 36858 ft | 548 kts | 147° |
| 2026-04-23 22:42 | 20.00439 | 60.34289 | 36860 ft | 550 kts | 139° |
| 2026-04-23 22:42 | 19.94759 | 60.39658 | 36858 ft | 550 kts | 138° |
| 2026-04-23 22:43 | 19.89079 | 60.45106 | 36857 ft | 550 kts | 138° |
| 2026-04-23 22:43 | 19.83387 | 60.50540 | 36857 ft | 550 kts | 138° |
| 2026-04-23 22:44 | 19.77690 | 60.55950 | 36857 ft | 549 kts | 138° |
| 2026-04-23 22:44 | 19.71989 | 60.61351 | 36864 ft | 549 kts | 138° |
| 2026-04-23 22:45 | 19.66287 | 60.66748 | 36866 ft | 549 kts | 138° |
| 2026-04-23 22:45 | 19.60579 | 60.72147 | 36864 ft | 550 kts | 138° |
| 2026-04-23 22:46 | 19.54868 | 60.77543 | 36867 ft | 549 kts | 138° |
| 2026-04-23 22:46 | 19.49166 | 60.82925 | 36862 ft | 549 kts | 138° |
| 2026-04-23 22:47 | 19.43485 | 60.88283 | 36867 ft | 549 kts | 138° |
| 2026-04-23 22:47 | 19.37774 | 60.93663 | 36865 ft | 549 kts | 138° |
| 2026-04-23 22:48 | 19.32072 | 60.99029 | 36871 ft | 549 kts | 138° |
| 2026-04-23 22:48 | 19.26492 | 61.04275 | 36868 ft | 548 kts | 138° |
| 2026-04-23 22:49 | 19.20844 | 61.09581 | 36867 ft | 544 kts | 138° |
| 2026-04-23 22:49 | 19.15224 | 61.14856 | 36872 ft | 543 kts | 138° |
| 2026-04-23 22:50 | 19.09507 | 61.20216 | 36870 ft | 543 kts | 138° |
| 2026-04-23 22:50 | 19.03852 | 61.25513 | 36871 ft | 543 kts | 138° |
| 2026-04-23 22:51 | 18.98205 | 61.30798 | 36870 ft | 544 kts | 138° |
| 2026-04-23 22:51 | 18.92539 | 61.36095 | 36874 ft | 544 kts | 138° |
| 2026-04-23 22:52 | 18.86879 | 61.41381 | 36873 ft | 542 kts | 138° |
| 2026-04-23 22:52 | 18.81266 | 61.46619 | 36873 ft | 542 kts | 138° |
| 2026-04-23 22:53 | 18.75618 | 61.51885 | 36865 ft | 542 kts | 137° |
| 2026-04-23 22:53 | 18.69963 | 61.57152 | 36876 ft | 543 kts | 138° |
| 2026-04-23 22:54 | 18.64291 | 61.62430 | 36877 ft | 543 kts | 138° |
| 2026-04-23 22:54 | 18.58627 | 61.67695 | 36880 ft | 543 kts | 138° |
| 2026-04-23 22:55 | 18.52938 | 61.72979 | 36877 ft | 543 kts | 138° |
| 2026-04-23 22:55 | 18.47275 | 61.78234 | 36878 ft | 543 kts | 137° |
| 2026-04-23 22:56 | 18.41604 | 61.83492 | 36883 ft | 544 kts | 137° |
| 2026-04-23 22:56 | 18.35923 | 61.88755 | 36879 ft | 544 kts | 137° |
| 2026-04-23 22:57 | 18.30246 | 61.94008 | 36881 ft | 543 kts | 137° |
| 2026-04-23 22:57 | 18.24567 | 61.99258 | 36882 ft | 542 kts | 137° |
| 2026-04-23 22:58 | 18.18899 | 62.04494 | 36885 ft | 543 kts | 137° |
| 2026-04-23 22:58 | 18.13228 | 62.09729 | 36884 ft | 543 kts | 137° |
| 2026-04-23 22:59 | 18.07554 | 62.14960 | 36886 ft | 543 kts | 137° |
| 2026-04-23 22:59 | 18.01908 | 62.20162 | 36884 ft | 543 kts | 137° |
| 2026-04-23 23:00 | 17.96197 | 62.25418 | 36883 ft | 543 kts | 137° |
| 2026-04-23 23:00 | 17.90538 | 62.30622 | 36887 ft | 543 kts | 137° |
| 2026-04-23 23:01 | 17.84850 | 62.35850 | 36889 ft | 543 kts | 137° |
| 2026-04-23 23:01 | 17.79199 | 62.41036 | 36885 ft | 543 kts | 137° |
| 2026-04-23 23:02 | 17.73512 | 62.46253 | 36881 ft | 543 kts | 137° |
| 2026-04-23 23:02 | 17.67826 | 62.51463 | 36883 ft | 543 kts | 137° |
| 2026-04-23 23:03 | 17.62135 | 62.56673 | 36882 ft | 543 kts | 137° |
| 2026-04-23 23:03 | 17.56443 | 62.61880 | 36881 ft | 543 kts | 137° |
| 2026-04-23 23:04 | 17.50757 | 62.67078 | 36881 ft | 543 kts | 137° |
| 2026-04-23 23:04 | 17.45066 | 62.72275 | 36882 ft | 543 kts | 137° |
| 2026-04-23 23:05 | 17.39372 | 62.77471 | 36883 ft | 543 kts | 137° |
| 2026-04-23 23:05 | 17.33680 | 62.82660 | 36881 ft | 543 kts | 137° |
| 2026-04-23 23:06 | 17.27993 | 62.87839 | 36885 ft | 542 kts | 137° |
| 2026-04-23 23:06 | 17.22297 | 62.93023 | 36887 ft | 542 kts | 137° |
| 2026-04-23 23:07 | 17.16614 | 62.98191 | 36884 ft | 542 kts | 137° |
| 2026-04-23 23:07 | 17.10928 | 63.03357 | 36883 ft | 542 kts | 137° |
| 2026-04-23 23:08 | 17.05233 | 63.08527 | 36882 ft | 542 kts | 137° |
| 2026-04-23 23:08 | 16.99537 | 63.13688 | 36889 ft | 542 kts | 138° |
| 2026-04-23 23:09 | 16.93762 | 63.18730 | 36879 ft | 541 kts | 139° |
| 2026-04-23 23:09 | 16.87948 | 63.23722 | 36879 ft | 540 kts | 139° |
| 2026-04-23 23:10 | 16.83119 | 63.27882 | 36882 ft | 540 kts | 139° |
| 2026-04-23 23:10 | 16.76385 | 63.33706 | 36884 ft | 540 kts | 139° |
| 2026-04-23 23:11 | 16.70601 | 63.38712 | 36877 ft | 540 kts | 139° |
| 2026-04-23 23:11 | 16.64817 | 63.43715 | 36886 ft | 540 kts | 139° |
| 2026-04-23 23:12 | 16.59026 | 63.48719 | 36875 ft | 539 kts | 139° |
| 2026-04-23 23:12 | 16.53257 | 63.53700 | 36882 ft | 538 kts | 139° |
| 2026-04-23 23:13 | 16.47497 | 63.58668 | 36878 ft | 538 kts | 139° |
| 2026-04-23 23:13 | 16.41730 | 63.63638 | 36873 ft | 538 kts | 139° |
| 2026-04-23 23:14 | 16.35961 | 63.68607 | 36876 ft | 538 kts | 139° |
| 2026-04-23 23:14 | 16.30198 | 63.73566 | 36876 ft | 538 kts | 139° |
| 2026-04-23 23:15 | 16.24445 | 63.78513 | 36880 ft | 536 kts | 139° |
| 2026-04-23 23:15 | 16.19664 | 63.82621 | 36874 ft | 536 kts | 139° |
| 2026-04-23 23:16 | 16.13915 | 63.87557 | 36873 ft | 536 kts | 139° |
| 2026-04-23 23:16 | 16.07238 | 63.93286 | 36871 ft | 535 kts | 139° |
| 2026-04-23 23:17 | 16.02422 | 63.97414 | 36867 ft | 535 kts | 139° |
| 2026-04-23 23:17 | 15.96683 | 64.02330 | 36871 ft | 534 kts | 139° |
| 2026-04-23 23:18 | 15.90952 | 64.07236 | 36877 ft | 534 kts | 139° |
| 2026-04-23 23:18 | 15.85221 | 64.12138 | 36870 ft | 533 kts | 139° |
| 2026-04-23 23:19 | 15.79535 | 64.16997 | 36870 ft | 533 kts | 139° |
| 2026-04-23 23:19 | 15.73816 | 64.21882 | 36867 ft | 533 kts | 139° |
| 2026-04-23 23:20 | 15.68098 | 64.26762 | 36867 ft | 532 kts | 139° |
| 2026-04-23 23:20 | 15.62380 | 64.31638 | 36883 ft | 532 kts | 139° |
| 2026-04-23 23:21 | 15.56660 | 64.36511 | 36872 ft | 532 kts | 140° |
| 2026-04-23 23:21 | 15.50957 | 64.41367 | 36866 ft | 530 kts | 140° |
| 2026-04-23 23:22 | 15.45265 | 64.46211 | 36875 ft | 529 kts | 140° |
| 2026-04-23 23:22 | 15.39581 | 64.51043 | 36854 ft | 528 kts | 140° |
| 2026-04-23 23:23 | 15.33899 | 64.55871 | 36870 ft | 528 kts | 140° |
| 2026-04-23 23:23 | 15.28218 | 64.60694 | 36869 ft | 528 kts | 140° |
| 2026-04-23 23:24 | 15.22534 | 64.65516 | 36862 ft | 528 kts | 140° |
| 2026-04-23 23:24 | 15.16886 | 64.70305 | 36863 ft | 528 kts | 140° |
| 2026-04-23 23:25 | 15.11168 | 64.75149 | 36859 ft | 527 kts | 140° |
| 2026-04-23 23:25 | 15.05498 | 64.79949 | 36859 ft | 527 kts | 140° |
| 2026-04-23 23:26 | 14.99823 | 64.84749 | 36861 ft | 527 kts | 140° |
| 2026-04-23 23:26 | 14.94152 | 64.89543 | 36859 ft | 527 kts | 140° |
| 2026-04-23 23:27 | 14.88477 | 64.94338 | 36861 ft | 527 kts | 140° |
| 2026-04-23 23:27 | 14.82808 | 64.99124 | 36856 ft | 525 kts | 140° |
| 2026-04-23 23:28 | 14.77192 | 65.03861 | 36853 ft | 524 kts | 140° |
| 2026-04-23 23:28 | 14.71552 | 65.08616 | 36854 ft | 524 kts | 140° |
| 2026-04-23 23:29 | 14.65909 | 65.13369 | 36858 ft | 523 kts | 140° |
| 2026-04-23 23:29 | 14.60263 | 65.18122 | 36855 ft | 524 kts | 140° |
| 2026-04-23 23:30 | 14.54617 | 65.22875 | 36854 ft | 523 kts | 140° |
| 2026-04-23 23:30 | 14.48972 | 65.27616 | 36853 ft | 523 kts | 141° |
| 2026-04-23 23:31 | 14.43328 | 65.32352 | 36856 ft | 522 kts | 141° |
| 2026-04-23 23:31 | 14.37689 | 65.37083 | 36854 ft | 522 kts | 141° |
| 2026-04-23 23:32 | 14.32064 | 65.41799 | 36852 ft | 521 kts | 141° |
| 2026-04-23 23:32 | 14.26436 | 65.46515 | 36845 ft | 521 kts | 141° |
| 2026-04-23 23:33 | 14.20808 | 65.51228 | 36847 ft | 521 kts | 141° |
| 2026-04-23 23:33 | 14.15184 | 65.55934 | 36845 ft | 521 kts | 141° |
| 2026-04-23 23:34 | 14.09560 | 65.60637 | 36846 ft | 521 kts | 141° |
| 2026-04-23 23:34 | 14.03940 | 65.65333 | 36842 ft | 519 kts | 141° |
| 2026-04-23 23:35 | 13.98336 | 65.70013 | 36841 ft | 518 kts | 141° |
| 2026-04-23 23:35 | 13.92740 | 65.74685 | 36843 ft | 518 kts | 141° |
| 2026-04-23 23:36 | 13.87141 | 65.79354 | 36843 ft | 518 kts | 141° |
| 2026-04-23 23:36 | 13.81537 | 65.84026 | 36841 ft | 518 kts | 142° |
| 2026-04-23 23:37 | 13.75936 | 65.88691 | 36846 ft | 518 kts | 142° |
| 2026-04-23 23:37 | 13.70335 | 65.93354 | 36851 ft | 518 kts | 142° |
| 2026-04-23 23:38 | 13.64737 | 65.98012 | 36842 ft | 516 kts | 142° |
| 2026-04-23 23:38 | 13.59167 | 66.02643 | 36838 ft | 515 kts | 142° |
| 2026-04-23 23:39 | 13.53593 | 66.07275 | 36838 ft | 515 kts | 142° |
| 2026-04-23 23:39 | 13.48050 | 66.11877 | 36840 ft | 515 kts | 142° |
| 2026-04-23 23:40 | 13.42478 | 66.16502 | 36840 ft | 515 kts | 142° |
| 2026-04-23 23:40 | 13.36906 | 66.21122 | 36833 ft | 515 kts | 142° |
| 2026-04-23 23:41 | 13.31323 | 66.25751 | 36839 ft | 515 kts | 142° |
| 2026-04-23 23:41 | 13.25753 | 66.30366 | 36838 ft | 513 kts | 142° |
| 2026-04-23 23:42 | 13.20202 | 66.34961 | 36837 ft | 513 kts | 142° |
| 2026-04-23 23:42 | 13.14647 | 66.39557 | 36837 ft | 513 kts | 142° |
| 2026-04-23 23:43 | 13.09092 | 66.44150 | 36840 ft | 513 kts | 142° |
| 2026-04-23 23:43 | 13.03541 | 66.48738 | 36838 ft | 512 kts | 143° |
| 2026-04-23 23:44 | 12.97993 | 66.53320 | 36835 ft | 512 kts | 143° |
| 2026-04-23 23:44 | 12.92448 | 66.57897 | 36840 ft | 512 kts | 143° |
| 2026-04-23 23:45 | 12.86950 | 66.62433 | 36836 ft | 509 kts | 143° |
| 2026-04-23 23:45 | 12.81450 | 66.66967 | 36834 ft | 508 kts | 143° |
| 2026-04-23 23:46 | 12.75943 | 66.71504 | 36825 ft | 508 kts | 144° |
| 2026-04-23 23:46 | 12.70433 | 66.76042 | 36834 ft | 508 kts | 144° |
| 2026-04-23 23:47 | 12.64927 | 66.80573 | 36835 ft | 508 kts | 144° |
| 2026-04-23 23:47 | 12.59423 | 66.85101 | 36834 ft | 508 kts | 144° |
| 2026-04-23 23:48 | 12.53909 | 66.89633 | 36834 ft | 508 kts | 144° |
| 2026-04-23 23:48 | 12.48411 | 66.94152 | 36833 ft | 506 kts | 144° |
| 2026-04-23 23:49 | 12.40183 | 67.00908 | 36831 ft | 505 kts | 145° |
| 2026-04-23 23:49 | 12.34695 | 67.05409 | 36833 ft | 505 kts | 145° |
| 2026-04-23 23:50 | 12.29208 | 67.09909 | 36827 ft | 505 kts | 145° |
| 2026-04-23 23:50 | 12.23724 | 67.14403 | 36827 ft | 506 kts | 145° |
| 2026-04-23 23:51 | 12.18271 | 67.18869 | 36826 ft | 505 kts | 145° |
| 2026-04-23 23:51 | 12.12784 | 67.23362 | 36822 ft | 505 kts | 145° |
| 2026-04-23 23:52 | 12.07291 | 67.27857 | 36829 ft | 506 kts | 145° |
| 2026-04-23 23:52 | 12.01793 | 67.32353 | 36829 ft | 506 kts | 145° |
| 2026-04-23 23:53 | 11.96290 | 67.36851 | 36829 ft | 506 kts | 145° |
| 2026-04-23 23:53 | 11.90793 | 67.41345 | 36829 ft | 506 kts | 145° |
| 2026-04-23 23:54 | 11.85297 | 67.45832 | 36829 ft | 506 kts | 145° |
| 2026-04-23 23:54 | 11.79797 | 67.50322 | 36824 ft | 506 kts | 145° |
| 2026-04-23 23:55 | 11.74291 | 67.54814 | 36827 ft | 506 kts | 146° |
| 2026-04-23 23:55 | 11.68793 | 67.59299 | 36831 ft | 506 kts | 146° |
| 2026-04-23 23:56 | 11.63287 | 67.63786 | 36829 ft | 506 kts | 146° |
| 2026-04-23 23:56 | 11.57787 | 67.68266 | 36826 ft | 506 kts | 146° |
| 2026-04-23 23:57 | 11.52289 | 67.72743 | 36826 ft | 506 kts | 146° |
| 2026-04-23 23:57 | 11.46789 | 67.77218 | 36826 ft | 505 kts | 146° |
| 2026-04-23 23:58 | 11.41298 | 67.81685 | 36826 ft | 505 kts | 146° |
| 2026-04-23 23:58 | 11.35801 | 67.86154 | 36826 ft | 505 kts | 146° |
| 2026-04-23 23:59 | 11.30312 | 67.90614 | 36826 ft | 505 kts | 146° |
| 2026-04-23 23:59 | 11.24818 | 67.95075 | 36826 ft | 505 kts | 146° |
| 2026-04-24 00:00 | 11.19326 | 67.99533 | 36829 ft | 505 kts | 146° |
| 2026-04-24 00:00 | 11.13830 | 68.03992 | 36827 ft | 505 kts | 146° |
| 2026-04-24 00:01 | 11.08333 | 68.08449 | 36828 ft | 505 kts | 146° |
| 2026-04-24 00:01 | 11.02831 | 68.12908 | 36827 ft | 505 kts | 146° |
| 2026-04-24 00:02 | 10.97339 | 68.17357 | 36828 ft | 505 kts | 146° |
| 2026-04-24 00:02 | 10.92764 | 68.21062 | 36823 ft | 505 kts | 146° |
| 2026-04-24 00:03 | 10.87267 | 68.25512 | 36824 ft | 505 kts | 146° |
| 2026-04-24 00:03 | 10.81769 | 68.29959 | 36823 ft | 505 kts | 146° |
| 2026-04-24 00:04 | 10.76272 | 68.34403 | 36820 ft | 505 kts | 146° |
| 2026-04-24 00:04 | 10.70771 | 68.38849 | 36824 ft | 505 kts | 146° |
| 2026-04-24 00:05 | 10.65278 | 68.43287 | 36822 ft | 505 kts | 146° |
| 2026-04-24 00:05 | 10.59780 | 68.47726 | 36824 ft | 505 kts | 146° |
| 2026-04-24 00:06 | 10.54279 | 68.52166 | 36814 ft | 505 kts | 146° |
| 2026-04-24 00:06 | 10.48782 | 68.56600 | 36826 ft | 504 kts | 146° |
| 2026-04-24 00:07 | 10.43284 | 68.61032 | 36826 ft | 504 kts | 146° |
| 2026-04-24 00:07 | 10.37793 | 68.65458 | 36820 ft | 504 kts | 146° |
| 2026-04-24 00:08 | 10.32295 | 68.69887 | 36821 ft | 504 kts | 146° |
| 2026-04-24 00:08 | 10.26799 | 68.74312 | 36821 ft | 504 kts | 146° |
| 2026-04-24 00:09 | 10.21301 | 68.78737 | 36810 ft | 504 kts | 146° |
| 2026-04-24 00:09 | 10.15803 | 68.83160 | 36821 ft | 504 kts | 146° |
| 2026-04-24 00:10 | 10.10306 | 68.87579 | 36821 ft | 504 kts | 146° |
| 2026-04-24 00:10 | 10.04813 | 68.91995 | 36823 ft | 503 kts | 146° |
| 2026-04-24 00:11 | 9.99320 | 68.96407 | 36819 ft | 503 kts | 146° |
| 2026-04-24 00:11 | 9.93833 | 69.00814 | 36823 ft | 503 kts | 146° |
| 2026-04-24 00:12 | 9.88343 | 69.05220 | 36808 ft | 503 kts | 146° |
| 2026-04-24 00:12 | 9.82853 | 69.09625 | 36819 ft | 503 kts | 146° |
| 2026-04-24 00:13 | 9.77364 | 69.14026 | 36820 ft | 503 kts | 146° |
| 2026-04-24 00:13 | 9.71879 | 69.18424 | 36817 ft | 503 kts | 146° |
| 2026-04-24 00:14 | 9.66397 | 69.22814 | 36827 ft | 501 kts | 146° |
| 2026-04-24 00:14 | 9.60923 | 69.27192 | 36812 ft | 501 kts | 146° |
| 2026-04-24 00:15 | 9.55490 | 69.31536 | 36802 ft | 501 kts | 146° |
| 2026-04-24 00:15 | 9.50023 | 69.35906 | 36816 ft | 500 kts | 146° |
| 2026-04-24 00:16 | 9.44566 | 69.40268 | 36816 ft | 500 kts | 146° |
| 2026-04-24 00:16 | 9.39102 | 69.44633 | 36812 ft | 500 kts | 146° |
| 2026-04-24 00:17 | 9.33640 | 69.48994 | 36818 ft | 500 kts | 146° |
| 2026-04-24 00:17 | 9.28173 | 69.53357 | 36818 ft | 500 kts | 146° |
| 2026-04-24 00:18 | 9.22720 | 69.57709 | 36818 ft | 499 kts | 146° |
| 2026-04-24 00:18 | 9.17273 | 69.62053 | 36812 ft | 498 kts | 146° |
| 2026-04-24 00:19 | 9.11829 | 69.66393 | 36818 ft | 498 kts | 146° |
| 2026-04-24 00:19 | 9.06388 | 69.70728 | 36807 ft | 498 kts | 146° |
| 2026-04-24 00:20 | 9.00943 | 69.75066 | 36812 ft | 498 kts | 146° |
| 2026-04-24 00:20 | 8.95501 | 69.79399 | 36815 ft | 498 kts | 146° |
| 2026-04-24 00:21 | 8.90057 | 69.83732 | 36819 ft | 498 kts | 146° |
| 2026-04-24 00:21 | 8.84622 | 69.88056 | 36818 ft | 497 kts | 146° |
| 2026-04-24 00:22 | 8.79196 | 69.92372 | 36819 ft | 496 kts | 146° |
| 2026-04-24 00:22 | 8.73775 | 69.96682 | 36814 ft | 496 kts | 146° |
| 2026-04-24 00:23 | 8.68351 | 70.00992 | 36817 ft | 496 kts | 146° |
| 2026-04-24 00:23 | 8.62927 | 70.05301 | 36817 ft | 496 kts | 146° |
| 2026-04-24 00:24 | 8.57508 | 70.09604 | 36817 ft | 496 kts | 146° |
| 2026-04-24 00:24 | 8.52082 | 70.13911 | 36815 ft | 496 kts | 146° |
| 2026-04-24 00:25 | 8.46664 | 70.18211 | 36821 ft | 495 kts | 146° |
| 2026-04-24 00:25 | 8.41246 | 70.22508 | 36817 ft | 494 kts | 146° |
| 2026-04-24 00:26 | 8.35888 | 70.26758 | 36817 ft | 493 kts | 146° |
| 2026-04-24 00:26 | 8.30494 | 70.31033 | 36819 ft | 493 kts | 146° |
| 2026-04-24 00:27 | 8.25096 | 70.35309 | 36818 ft | 493 kts | 146° |
| 2026-04-24 00:27 | 8.19706 | 70.39578 | 36817 ft | 493 kts | 146° |
| 2026-04-24 00:28 | 8.14317 | 70.43846 | 36817 ft | 492 kts | 146° |
| 2026-04-24 00:28 | 8.08929 | 70.48110 | 36821 ft | 492 kts | 146° |
| 2026-04-24 00:29 | 8.03543 | 70.52372 | 36820 ft | 492 kts | 146° |
| 2026-04-24 00:29 | 7.98156 | 70.56633 | 36820 ft | 491 kts | 146° |
| 2026-04-24 00:30 | 7.92783 | 70.60882 | 36824 ft | 490 kts | 146° |
| 2026-04-24 00:30 | 7.87421 | 70.65120 | 36815 ft | 490 kts | 146° |
| 2026-04-24 00:31 | 7.82051 | 70.69362 | 36822 ft | 491 kts | 146° |
| 2026-04-24 00:31 | 7.76673 | 70.73610 | 36820 ft | 491 kts | 146° |
| 2026-04-24 00:32 | 7.71333 | 70.77827 | 36823 ft | 491 kts | 146° |
| 2026-04-24 00:32 | 7.65922 | 70.82099 | 36823 ft | 491 kts | 146° |
| 2026-04-24 00:33 | 7.60543 | 70.86344 | 36821 ft | 491 kts | 146° |
| 2026-04-24 00:33 | 7.55167 | 70.90585 | 36822 ft | 491 kts | 146° |
| 2026-04-24 00:34 | 7.50064 | 70.95178 | 36820 ft | 497 kts | 134° |
| 2026-04-24 00:34 | 7.46026 | 71.00872 | 36821 ft | 501 kts | 127° |
| 2026-04-24 00:35 | 7.42294 | 71.06816 | 36824 ft | 502 kts | 126° |
| 2026-04-24 00:35 | 7.38602 | 71.12795 | 36824 ft | 502 kts | 126° |
| 2026-04-24 00:36 | 7.34889 | 71.18761 | 36824 ft | 502 kts | 126° |
| 2026-04-24 00:36 | 7.31187 | 71.24669 | 36824 ft | 502 kts | 126° |
| 2026-04-24 00:37 | 7.27454 | 71.30613 | 36822 ft | 502 kts | 126° |
| 2026-04-24 00:37 | 7.23721 | 71.36554 | 36824 ft | 502 kts | 126° |
| 2026-04-24 00:38 | 7.19987 | 71.42498 | 36817 ft | 502 kts | 126° |
| 2026-04-24 00:38 | 7.16247 | 71.48448 | 36822 ft | 503 kts | 126° |
| 2026-04-24 00:39 | 7.12508 | 71.54397 | 36825 ft | 503 kts | 126° |
| 2026-04-24 00:39 | 7.08771 | 71.60340 | 36824 ft | 502 kts | 126° |
| 2026-04-24 00:40 | 7.05039 | 71.66273 | 36826 ft | 502 kts | 126° |
| 2026-04-24 00:40 | 7.01306 | 71.72204 | 36827 ft | 502 kts | 126° |
| 2026-04-24 00:41 | 6.97571 | 71.78137 | 36822 ft | 502 kts | 126° |
| 2026-04-24 00:41 | 6.93837 | 71.84066 | 36823 ft | 502 kts | 126° |
| 2026-04-24 00:42 | 6.90103 | 71.89993 | 36824 ft | 502 kts | 126° |
| 2026-04-24 00:42 | 6.86367 | 71.95921 | 36822 ft | 501 kts | 126° |
| 2026-04-24 00:43 | 6.82637 | 72.01838 | 36827 ft | 501 kts | 126° |
| 2026-04-24 00:43 | 6.78907 | 72.07752 | 36827 ft | 501 kts | 126° |
| 2026-04-24 00:44 | 6.75174 | 72.13669 | 36825 ft | 501 kts | 126° |
| 2026-04-24 00:44 | 6.71443 | 72.19581 | 36825 ft | 501 kts | 126° |
| 2026-04-24 00:45 | 6.67711 | 72.25492 | 36827 ft | 501 kts | 126° |
| 2026-04-24 00:45 | 6.63985 | 72.31393 | 36829 ft | 499 kts | 126° |
| 2026-04-24 00:46 | 6.60266 | 72.37280 | 36825 ft | 499 kts | 126° |
| 2026-04-24 00:46 | 6.56571 | 72.43126 | 36827 ft | 499 kts | 126° |
| 2026-04-24 00:47 | 6.52849 | 72.49013 | 36822 ft | 499 kts | 126° |
| 2026-04-24 00:47 | 6.49133 | 72.54892 | 36824 ft | 497 kts | 126° |
| 2026-04-24 00:48 | 6.45424 | 72.60755 | 36825 ft | 497 kts | 126° |
| 2026-04-24 00:48 | 6.41720 | 72.66608 | 36826 ft | 495 kts | 126° |
| 2026-04-24 00:49 | 6.38024 | 72.72447 | 36827 ft | 495 kts | 126° |
| 2026-04-24 00:49 | 6.34951 | 72.77299 | 36827 ft | 495 kts | 126° |
| 2026-04-24 00:50 | 6.31253 | 72.83138 | 36825 ft | 495 kts | 126° |
| 2026-04-24 00:50 | 6.27552 | 72.88978 | 36827 ft | 495 kts | 126° |
| 2026-04-24 00:51 | 6.23852 | 72.94816 | 36823 ft | 495 kts | 126° |
| 2026-04-24 00:51 | 6.20159 | 73.00643 | 36822 ft | 493 kts | 127° |
| 2026-04-24 00:52 | 6.16476 | 73.06451 | 36823 ft | 493 kts | 127° |
| 2026-04-24 00:52 | 6.12795 | 73.12252 | 36823 ft | 492 kts | 127° |
| 2026-04-24 00:53 | 6.09112 | 73.18056 | 36824 ft | 492 kts | 127° |
| 2026-04-24 00:53 | 6.05427 | 73.23861 | 36822 ft | 493 kts | 127° |
| 2026-04-24 00:54 | 6.01744 | 73.29661 | 36824 ft | 493 kts | 127° |
| 2026-04-24 00:54 | 5.98058 | 73.35466 | 36823 ft | 492 kts | 127° |
| 2026-04-24 00:55 | 5.94380 | 73.41255 | 36827 ft | 492 kts | 127° |
| 2026-04-24 00:55 | 5.90699 | 73.47045 | 36825 ft | 492 kts | 127° |
| 2026-04-24 00:56 | 5.87016 | 73.52839 | 36843 ft | 492 kts | 127° |
| 2026-04-24 00:56 | 5.83333 | 73.58632 | 36823 ft | 492 kts | 127° |
| 2026-04-24 00:57 | 5.79675 | 73.64382 | 36823 ft | 492 kts | 127° |
| 2026-04-24 00:58 | 5.74146 | 73.73071 | 36821 ft | 492 kts | 127° |
| 2026-04-24 00:58 | 5.70456 | 73.78868 | 36838 ft | 493 kts | 127° |
| 2026-04-24 00:59 | 5.66768 | 73.84660 | 36839 ft | 492 kts | 127° |
| 2026-04-24 00:59 | 5.63076 | 73.90457 | 36820 ft | 493 kts | 127° |
| 2026-04-24 01:00 | 5.59387 | 73.96247 | 36821 ft | 493 kts | 127° |
| 2026-04-24 01:00 | 5.55695 | 74.02042 | 36840 ft | 493 kts | 127° |
| 2026-04-24 01:01 | 5.52002 | 74.07834 | 36839 ft | 493 kts | 127° |
| 2026-04-24 01:01 | 5.48306 | 74.13631 | 36821 ft | 493 kts | 127° |
| 2026-04-24 01:02 | 5.44617 | 74.19415 | 36819 ft | 492 kts | 127° |
| 2026-04-24 01:02 | 5.40926 | 74.25202 | 36836 ft | 492 kts | 127° |
| 2026-04-24 01:03 | 5.37236 | 74.30984 | 36839 ft | 492 kts | 127° |
| 2026-04-24 01:03 | 5.33544 | 74.36768 | 36823 ft | 492 kts | 127° |
| 2026-04-24 01:04 | 5.29854 | 74.42547 | 36818 ft | 492 kts | 127° |
| 2026-04-24 01:04 | 5.26157 | 74.48336 | 36835 ft | 492 kts | 127° |
| 2026-04-24 01:05 | 5.22462 | 74.54121 | 36838 ft | 492 kts | 127° |
| 2026-04-24 01:05 | 5.18765 | 74.59906 | 36836 ft | 492 kts | 127° |
| 2026-04-24 01:06 | 5.15067 | 74.65691 | 36820 ft | 493 kts | 127° |
| 2026-04-24 01:06 | 5.11373 | 74.71470 | 36834 ft | 491 kts | 127° |
| 2026-04-24 01:07 | 5.07687 | 74.77234 | 36835 ft | 491 kts | 127° |
| 2026-04-24 01:07 | 5.03998 | 74.83001 | 36819 ft | 491 kts | 127° |
| 2026-04-24 01:08 | 5.00310 | 74.88765 | 36835 ft | 491 kts | 127° |
| 2026-04-24 01:08 | 4.96621 | 74.94530 | 36819 ft | 491 kts | 127° |
| 2026-04-24 01:09 | 4.92934 | 75.00290 | 36835 ft | 491 kts | 127° |
| 2026-04-24 01:09 | 4.89245 | 75.06051 | 36837 ft | 491 kts | 127° |
| 2026-04-24 01:10 | 4.85553 | 75.11816 | 36832 ft | 491 kts | 126° |
| 2026-04-24 01:10 | 4.81865 | 75.17573 | 36834 ft | 491 kts | 126° |
| 2026-04-24 01:11 | 4.78176 | 75.23331 | 36831 ft | 491 kts | 126° |
| 2026-04-24 01:11 | 4.74488 | 75.29085 | 36833 ft | 491 kts | 126° |
| 2026-04-24 01:12 | 4.70796 | 75.34844 | 36828 ft | 491 kts | 126° |
| 2026-04-24 01:12 | 4.67131 | 75.40561 | 36833 ft | 491 kts | 126° |
| 2026-04-24 01:13 | 4.63442 | 75.46313 | 36829 ft | 491 kts | 126° |
| 2026-04-24 01:13 | 4.59749 | 75.52070 | 36833 ft | 491 kts | 126° |
| 2026-04-24 01:14 | 4.56055 | 75.57827 | 36837 ft | 491 kts | 126° |
| 2026-04-24 01:14 | 4.52362 | 75.63581 | 36837 ft | 491 kts | 126° |
| 2026-04-24 01:15 | 4.48666 | 75.69339 | 36840 ft | 491 kts | 126° |
| 2026-04-24 01:15 | 4.44974 | 75.75090 | 36839 ft | 491 kts | 126° |
| 2026-04-24 01:16 | 4.41278 | 75.80844 | 36837 ft | 491 kts | 126° |
| 2026-04-24 01:16 | 4.37580 | 75.86600 | 36841 ft | 491 kts | 126° |
| 2026-04-24 01:17 | 4.33887 | 75.92349 | 36841 ft | 491 kts | 126° |
| 2026-04-24 01:17 | 4.30191 | 75.98101 | 36836 ft | 491 kts | 126° |
| 2026-04-24 01:18 | 4.26496 | 76.03850 | 36841 ft | 491 kts | 126° |
| 2026-04-24 01:18 | 4.22797 | 76.09602 | 36843 ft | 491 kts | 126° |
| 2026-04-24 01:19 | 4.19098 | 76.15355 | 36841 ft | 491 kts | 126° |
| 2026-04-24 01:19 | 4.15398 | 76.21106 | 36844 ft | 492 kts | 126° |
| 2026-04-24 01:20 | 4.11694 | 76.26865 | 36844 ft | 492 kts | 126° |
| 2026-04-24 01:20 | 4.07990 | 76.32623 | 36842 ft | 492 kts | 126° |
| 2026-04-24 01:21 | 4.04308 | 76.38344 | 36846 ft | 492 kts | 126° |
| 2026-04-24 01:21 | 4.00608 | 76.44092 | 36844 ft | 491 kts | 126° |
| 2026-04-24 01:22 | 3.96902 | 76.49848 | 36844 ft | 491 kts | 126° |
| 2026-04-24 01:22 | 3.93198 | 76.55598 | 36843 ft | 491 kts | 125° |
| 2026-04-24 01:23 | 3.89492 | 76.61353 | 36846 ft | 491 kts | 125° |
| 2026-04-24 01:23 | 3.85787 | 76.67105 | 36845 ft | 491 kts | 125° |
| 2026-04-24 01:24 | 3.82083 | 76.72853 | 36844 ft | 491 kts | 126° |
| 2026-04-24 01:24 | 3.78379 | 76.78602 | 36847 ft | 491 kts | 126° |
| 2026-04-24 01:25 | 3.74674 | 76.84350 | 36847 ft | 491 kts | 126° |
| 2026-04-24 01:25 | 3.70970 | 76.90092 | 36843 ft | 491 kts | 125° |
| 2026-04-24 01:26 | 3.67267 | 76.95836 | 36848 ft | 490 kts | 125° |
| 2026-04-24 01:26 | 3.63571 | 77.01568 | 36845 ft | 490 kts | 125° |
| 2026-04-24 01:27 | 3.59873 | 77.07301 | 36844 ft | 490 kts | 125° |
| 2026-04-24 01:27 | 3.56175 | 77.13033 | 36845 ft | 490 kts | 125° |
| 2026-04-24 01:28 | 3.52503 | 77.18723 | 36846 ft | 490 kts | 125° |
| 2026-04-24 01:28 | 3.48803 | 77.24457 | 36845 ft | 490 kts | 125° |
| 2026-04-24 01:29 | 3.45098 | 77.30195 | 36845 ft | 492 kts | 125° |
| 2026-04-24 01:29 | 3.41385 | 77.35946 | 36845 ft | 492 kts | 125° |
| 2026-04-24 01:30 | 3.37672 | 77.41698 | 36845 ft | 492 kts | 125° |
| 2026-04-24 01:30 | 3.33955 | 77.47451 | 36846 ft | 492 kts | 124° |
| 2026-04-24 01:31 | 3.30242 | 77.53200 | 36847 ft | 492 kts | 124° |
| 2026-04-24 01:31 | 3.26528 | 77.58950 | 36843 ft | 492 kts | 124° |
| 2026-04-24 01:32 | 3.22809 | 77.64703 | 36845 ft | 493 kts | 124° |
| 2026-04-24 01:32 | 3.19086 | 77.70466 | 36847 ft | 493 kts | 124° |
| 2026-04-24 01:33 | 3.15360 | 77.76231 | 36846 ft | 493 kts | 124° |
| 2026-04-24 01:33 | 3.11636 | 77.81993 | 36842 ft | 493 kts | 124° |
| 2026-04-24 01:34 | 3.07912 | 77.87752 | 36842 ft | 493 kts | 124° |
| 2026-04-24 01:34 | 3.04187 | 77.93513 | 36843 ft | 493 kts | 124° |
| 2026-04-24 01:35 | 3.00430 | 77.99260 | 36841 ft | 493 kts | 127° |
| 2026-04-24 01:35 | 2.96230 | 78.04675 | 36845 ft | 493 kts | 129° |
| 2026-04-24 01:36 | 2.91926 | 78.10009 | 36844 ft | 492 kts | 129° |
| 2026-04-24 01:36 | 2.88335 | 78.14426 | 36845 ft | 492 kts | 129° |
| 2026-04-24 01:37 | 2.83319 | 78.20609 | 36845 ft | 492 kts | 129° |
| 2026-04-24 01:37 | 2.79009 | 78.25931 | 36842 ft | 492 kts | 129° |
| 2026-04-24 01:38 | 2.75401 | 78.30390 | 36842 ft | 492 kts | 129° |
| 2026-04-24 01:38 | 2.71089 | 78.35717 | 36843 ft | 492 kts | 129° |
| 2026-04-24 01:39 | 2.66777 | 78.41044 | 36846 ft | 492 kts | 129° |
| 2026-04-24 01:39 | 2.62467 | 78.46367 | 36846 ft | 492 kts | 129° |
| 2026-04-24 01:40 | 2.58161 | 78.51685 | 36844 ft | 492 kts | 129° |
| 2026-04-24 01:40 | 2.53857 | 78.57000 | 36847 ft | 491 kts | 129° |
| 2026-04-24 01:41 | 2.49554 | 78.62313 | 36846 ft | 491 kts | 129° |
| 2026-04-24 01:41 | 2.45281 | 78.67588 | 36848 ft | 491 kts | 129° |
| 2026-04-24 01:42 | 2.40973 | 78.72904 | 36841 ft | 492 kts | 129° |
| 2026-04-24 01:42 | 2.36664 | 78.78223 | 36845 ft | 491 kts | 129° |
| 2026-04-24 01:43 | 2.32362 | 78.83534 | 36849 ft | 492 kts | 129° |
| 2026-04-24 01:43 | 2.28053 | 78.88850 | 36849 ft | 492 kts | 129° |
| 2026-04-24 01:44 | 2.23745 | 78.94166 | 36849 ft | 492 kts | 129° |
| 2026-04-24 01:44 | 2.19437 | 78.99481 | 36848 ft | 491 kts | 129° |
| 2026-04-24 01:45 | 2.15132 | 79.04792 | 36846 ft | 492 kts | 129° |
| 2026-04-24 01:45 | 2.10823 | 79.10104 | 36848 ft | 492 kts | 128° |
| 2026-04-24 01:46 | 2.06514 | 79.15420 | 36848 ft | 492 kts | 128° |
| 2026-04-24 01:46 | 2.02202 | 79.20739 | 36848 ft | 492 kts | 128° |
| 2026-04-24 01:47 | 1.97889 | 79.26058 | 36848 ft | 492 kts | 128° |
| 2026-04-24 01:47 | 1.93577 | 79.31374 | 36851 ft | 492 kts | 128° |
| 2026-04-24 01:48 | 1.89264 | 79.36691 | 36849 ft | 492 kts | 128° |
| 2026-04-24 01:48 | 1.84954 | 79.42004 | 36850 ft | 491 kts | 128° |
| 2026-04-24 01:49 | 1.80651 | 79.47309 | 36850 ft | 491 kts | 128° |
| 2026-04-24 01:49 | 1.76344 | 79.52617 | 36851 ft | 491 kts | 128° |
| 2026-04-24 01:50 | 1.72039 | 79.57923 | 36852 ft | 492 kts | 128° |
| 2026-04-24 01:50 | 1.67731 | 79.63233 | 36851 ft | 492 kts | 128° |
| 2026-04-24 01:51 | 1.63422 | 79.68542 | 36855 ft | 492 kts | 128° |
| 2026-04-24 01:51 | 1.59113 | 79.73852 | 36853 ft | 492 kts | 128° |
| 2026-04-24 01:52 | 1.54805 | 79.79159 | 36852 ft | 492 kts | 128° |
| 2026-04-24 01:52 | 1.50497 | 79.84467 | 36854 ft | 492 kts | 128° |
| 2026-04-24 01:53 | 1.46183 | 79.89781 | 36852 ft | 491 kts | 128° |
| 2026-04-24 01:53 | 1.41885 | 79.95076 | 36853 ft | 491 kts | 128° |
| 2026-04-24 01:54 | 1.37583 | 80.00375 | 36854 ft | 491 kts | 128° |
| 2026-04-24 01:54 | 1.33280 | 80.05674 | 36854 ft | 491 kts | 128° |
| 2026-04-24 01:55 | 1.28979 | 80.10972 | 36854 ft | 491 kts | 128° |
| 2026-04-24 01:55 | 1.24677 | 80.16270 | 36854 ft | 491 kts | 128° |
| 2026-04-24 01:56 | 1.20367 | 80.21578 | 36852 ft | 492 kts | 128° |
| 2026-04-24 01:56 | 1.16061 | 80.26880 | 36853 ft | 491 kts | 128° |
| 2026-04-24 01:57 | 1.11754 | 80.32184 | 36854 ft | 491 kts | 129° |
| 2026-04-24 01:57 | 1.07477 | 80.37451 | 36855 ft | 491 kts | 129° |
| 2026-04-24 01:58 | 1.03144 | 80.42783 | 36854 ft | 491 kts | 129° |
| 2026-04-24 01:58 | 0.98873 | 80.48041 | 36853 ft | 491 kts | 129° |
| 2026-04-24 01:59 | 0.94574 | 80.53334 | 36853 ft | 491 kts | 129° |
| 2026-04-24 01:59 | 0.90266 | 80.58637 | 36853 ft | 491 kts | 129° |
| 2026-04-24 02:00 | 0.85963 | 80.63934 | 36857 ft | 491 kts | 129° |
| 2026-04-24 02:00 | 0.81661 | 80.69230 | 36859 ft | 491 kts | 129° |
| 2026-04-24 02:01 | 0.77331 | 80.74560 | 36857 ft | 491 kts | 129° |
| 2026-04-24 02:01 | 0.73056 | 80.79822 | 36856 ft | 491 kts | 129° |
| 2026-04-24 02:02 | 0.68758 | 80.85111 | 36856 ft | 490 kts | 129° |
| 2026-04-24 02:02 | 0.64463 | 80.90397 | 36856 ft | 490 kts | 129° |
| 2026-04-24 02:03 | 0.58008 | 80.98342 | 36853 ft | 491 kts | 129° |
| 2026-04-24 02:03 | 0.53705 | 81.03636 | 36861 ft | 491 kts | 129° |
| 2026-04-24 02:04 | 0.49399 | 81.08936 | 36858 ft | 491 kts | 129° |
| 2026-04-24 02:04 | 0.45093 | 81.14235 | 36858 ft | 491 kts | 129° |
| 2026-04-24 02:05 | 0.40783 | 81.19538 | 36855 ft | 491 kts | 129° |
| 2026-04-24 02:05 | 0.36479 | 81.24836 | 36858 ft | 491 kts | 129° |
| 2026-04-24 02:06 | 0.32173 | 81.30134 | 36862 ft | 492 kts | 129° |
| 2026-04-24 02:06 | 0.27858 | 81.35443 | 36857 ft | 492 kts | 129° |
| 2026-04-24 02:07 | 0.23546 | 81.40749 | 36858 ft | 492 kts | 129° |
| 2026-04-24 02:07 | 0.19234 | 81.46055 | 36856 ft | 492 kts | 129° |
| 2026-04-24 02:08 | 0.14917 | 81.51366 | 36856 ft | 492 kts | 129° |
| 2026-04-24 02:08 | 0.10605 | 81.56673 | 36857 ft | 492 kts | 129° |
| 2026-04-24 02:09 | 0.06293 | 81.61979 | 36858 ft | 491 kts | 129° |
| 2026-04-24 02:09 | 0.01979 | 81.67287 | 36860 ft | 492 kts | 129° |
| 2026-04-24 02:10 | -0.02337 | 81.72596 | 36859 ft | 492 kts | 129° |
| 2026-04-24 02:10 | -0.06644 | 81.77897 | 36855 ft | 491 kts | 129° |
| 2026-04-24 02:11 | -0.10953 | 81.83199 | 36860 ft | 491 kts | 129° |
| 2026-04-24 02:11 | -0.15257 | 81.88495 | 36856 ft | 491 kts | 129° |
| 2026-04-24 02:12 | -0.19566 | 81.93797 | 36860 ft | 491 kts | 129° |
| 2026-04-24 02:12 | -0.23870 | 81.99093 | 36858 ft | 491 kts | 129° |
| 2026-04-24 02:13 | -0.28175 | 82.04391 | 36860 ft | 491 kts | 129° |
| 2026-04-24 02:13 | -0.32483 | 82.09692 | 36860 ft | 491 kts | 129° |
| 2026-04-24 02:14 | -0.36790 | 82.14991 | 36860 ft | 491 kts | 129° |
| 2026-04-24 02:14 | -0.41093 | 82.20285 | 36860 ft | 490 kts | 128° |
| 2026-04-24 02:15 | -0.45383 | 82.25564 | 36863 ft | 489 kts | 128° |
| 2026-04-24 02:15 | -0.49668 | 82.30839 | 36863 ft | 489 kts | 128° |
| 2026-04-24 02:16 | -0.53952 | 82.36111 | 36863 ft | 489 kts | 128° |
| 2026-04-24 02:16 | -0.58238 | 82.41386 | 36861 ft | 489 kts | 128° |
| 2026-04-24 02:17 | -0.62520 | 82.46656 | 36862 ft | 488 kts | 128° |
| 2026-04-24 02:17 | -0.66793 | 82.51915 | 36862 ft | 488 kts | 128° |
| 2026-04-24 02:18 | -0.71043 | 82.57145 | 36862 ft | 488 kts | 128° |
| 2026-04-24 02:18 | -0.75345 | 82.62440 | 36862 ft | 488 kts | 128° |
| 2026-04-24 02:19 | -0.79586 | 82.67660 | 36861 ft | 487 kts | 128° |
| 2026-04-24 02:19 | -0.83851 | 82.72910 | 36865 ft | 486 kts | 128° |
| 2026-04-24 02:20 | -0.88111 | 82.78153 | 36865 ft | 486 kts | 128° |
| 2026-04-24 02:20 | -0.92367 | 82.83393 | 36865 ft | 485 kts | 128° |
| 2026-04-24 02:21 | -0.96614 | 82.88621 | 36865 ft | 485 kts | 128° |
| 2026-04-24 02:21 | -1.00176 | 82.93006 | 36865 ft | 485 kts | 128° |
| 2026-04-24 02:22 | -1.04425 | 82.98238 | 36865 ft | 485 kts | 128° |
| 2026-04-24 02:22 | -1.08671 | 83.03465 | 36865 ft | 485 kts | 128° |
| 2026-04-24 02:23 | -1.12919 | 83.08696 | 36865 ft | 485 kts | 128° |
| 2026-04-24 02:23 | -1.17166 | 83.13925 | 36864 ft | 484 kts | 128° |
| 2026-04-24 02:24 | -1.21405 | 83.19145 | 36864 ft | 483 kts | 128° |
| 2026-04-24 02:24 | -1.25641 | 83.24361 | 36865 ft | 483 kts | 128° |
| 2026-04-24 02:25 | -1.29848 | 83.29543 | 36865 ft | 483 kts | 128° |
| 2026-04-24 02:25 | -1.34111 | 83.34793 | 36865 ft | 483 kts | 128° |
| 2026-04-24 02:26 | -1.38348 | 83.40011 | 36865 ft | 483 kts | 128° |
| 2026-04-24 02:26 | -1.42580 | 83.45224 | 36865 ft | 483 kts | 128° |
| 2026-04-24 02:27 | -1.46784 | 83.50403 | 36865 ft | 483 kts | 128° |
| 2026-04-24 02:27 | -1.51047 | 83.55655 | 36864 ft | 483 kts | 129° |
| 2026-04-24 02:28 | -1.55284 | 83.60876 | 36865 ft | 484 kts | 129° |
| 2026-04-24 02:28 | -1.59521 | 83.66095 | 36864 ft | 484 kts | 129° |
| 2026-04-24 02:29 | -1.63734 | 83.71286 | 36865 ft | 484 kts | 129° |
| 2026-04-24 02:29 | -1.67973 | 83.76510 | 36865 ft | 484 kts | 129° |
| 2026-04-24 02:30 | -1.72212 | 83.81733 | 36867 ft | 484 kts | 129° |
| 2026-04-24 02:30 | -1.76452 | 83.86959 | 36867 ft | 484 kts | 129° |
| 2026-04-24 02:31 | -1.80693 | 83.92186 | 36865 ft | 484 kts | 129° |
| 2026-04-24 02:31 | -1.84935 | 83.97415 | 36868 ft | 485 kts | 129° |
| 2026-04-24 02:32 | -1.89180 | 84.02649 | 36867 ft | 485 kts | 129° |
| 2026-04-24 02:32 | -1.93421 | 84.07878 | 36867 ft | 483 kts | 129° |
| 2026-04-24 02:33 | -1.97643 | 84.13084 | 36867 ft | 482 kts | 129° |
| 2026-04-24 02:33 | -2.01885 | 84.18261 | 36867 ft | 481 kts | 130° |
| 2026-04-24 02:34 | -2.06371 | 84.23234 | 36867 ft | 481 kts | 133° |
| 2026-04-24 02:34 | -2.10915 | 84.28149 | 36867 ft | 482 kts | 132° |
| 2026-04-24 02:35 | -2.15429 | 84.33096 | 36867 ft | 482 kts | 132° |
| 2026-04-24 02:35 | -2.19926 | 84.38072 | 36865 ft | 482 kts | 132° |
| 2026-04-24 02:36 | -2.24411 | 84.43050 | 36864 ft | 482 kts | 132° |
| 2026-04-24 02:36 | -2.28897 | 84.48028 | 36867 ft | 482 kts | 132° |
| 2026-04-24 02:37 | -2.33390 | 84.53012 | 36867 ft | 483 kts | 132° |
| 2026-04-24 02:37 | -2.37887 | 84.58000 | 36867 ft | 483 kts | 132° |
| 2026-04-24 02:38 | -2.42385 | 84.62990 | 36870 ft | 483 kts | 132° |
| 2026-04-24 02:38 | -2.46886 | 84.67985 | 36871 ft | 483 kts | 132° |
| 2026-04-24 02:39 | -2.51380 | 84.72971 | 36870 ft | 483 kts | 132° |
| 2026-04-24 02:39 | -2.55874 | 84.77958 | 36870 ft | 483 kts | 132° |
| 2026-04-24 02:40 | -2.60374 | 84.82952 | 36870 ft | 483 kts | 132° |
| 2026-04-24 02:40 | -2.64866 | 84.87939 | 36870 ft | 483 kts | 132° |
| 2026-04-24 02:41 | -2.69364 | 84.92931 | 36870 ft | 483 kts | 131° |
| 2026-04-24 02:41 | -2.73860 | 84.97923 | 36870 ft | 483 kts | 131° |
| 2026-04-24 02:42 | -2.78352 | 85.02911 | 36870 ft | 483 kts | 131° |
| 2026-04-24 02:42 | -2.82846 | 85.07903 | 36870 ft | 484 kts | 132° |
| 2026-04-24 02:43 | -2.87323 | 85.12874 | 36870 ft | 484 kts | 131° |
| 2026-04-24 02:43 | -2.91834 | 85.17885 | 36870 ft | 485 kts | 131° |
| 2026-04-24 02:44 | -2.96345 | 85.22896 | 36870 ft | 484 kts | 131° |
| 2026-04-24 02:44 | -3.00854 | 85.27905 | 36870 ft | 484 kts | 131° |
| 2026-04-24 02:45 | -3.05364 | 85.32918 | 36873 ft | 485 kts | 132° |
| 2026-04-24 02:45 | -3.09876 | 85.37932 | 36873 ft | 485 kts | 132° |
| 2026-04-24 02:46 | -3.14392 | 85.42952 | 36872 ft | 485 kts | 132° |
| 2026-04-24 02:46 | -3.18904 | 85.47967 | 36873 ft | 485 kts | 132° |
| 2026-04-24 02:47 | -3.23421 | 85.52990 | 36873 ft | 485 kts | 132° |
| 2026-04-24 02:47 | -3.27936 | 85.58010 | 36873 ft | 485 kts | 132° |
| 2026-04-24 02:48 | -3.32450 | 85.63031 | 36873 ft | 485 kts | 132° |
| 2026-04-24 02:48 | -3.36969 | 85.68057 | 36873 ft | 485 kts | 132° |
| 2026-04-24 02:49 | -3.41450 | 85.73043 | 36873 ft | 485 kts | 132° |
| 2026-04-24 02:49 | -3.45965 | 85.78067 | 36873 ft | 485 kts | 131° |
| 2026-04-24 02:50 | -3.50480 | 85.83091 | 36873 ft | 485 kts | 131° |
| 2026-04-24 02:50 | -3.54996 | 85.88117 | 36873 ft | 485 kts | 131° |
| 2026-04-24 02:51 | -3.59508 | 85.93140 | 36875 ft | 485 kts | 131° |
| 2026-04-24 02:51 | -3.64024 | 85.98168 | 36875 ft | 485 kts | 131° |
| 2026-04-24 02:52 | -3.68536 | 86.03192 | 36875 ft | 485 kts | 131° |
| 2026-04-24 02:52 | -3.73051 | 86.08220 | 36875 ft | 485 kts | 131° |
| 2026-04-24 02:53 | -3.77567 | 86.13251 | 36875 ft | 485 kts | 131° |
| 2026-04-24 02:53 | -3.82079 | 86.18278 | 36874 ft | 486 kts | 132° |
| 2026-04-24 02:54 | -3.86598 | 86.23313 | 36877 ft | 486 kts | 132° |
| 2026-04-24 02:54 | -3.91121 | 86.28354 | 36879 ft | 486 kts | 131° |
| 2026-04-24 02:55 | -3.95641 | 86.33393 | 36878 ft | 486 kts | 131° |
| 2026-04-24 02:55 | -4.00161 | 86.38432 | 36879 ft | 486 kts | 131° |
| 2026-04-24 02:56 | -4.04682 | 86.43473 | 36878 ft | 486 kts | 131° |
| 2026-04-24 02:56 | -4.09199 | 86.48510 | 36878 ft | 486 kts | 131° |
| 2026-04-24 02:57 | -4.13716 | 86.53549 | 36878 ft | 486 kts | 131° |
| 2026-04-24 02:57 | -4.18237 | 86.58594 | 36878 ft | 486 kts | 132° |
| 2026-04-24 02:58 | -4.22756 | 86.63637 | 36878 ft | 487 kts | 132° |
| 2026-04-24 02:58 | -4.27256 | 86.68659 | 36881 ft | 488 kts | 132° |
| 2026-04-24 02:59 | -4.31788 | 86.73718 | 36881 ft | 488 kts | 132° |
| 2026-04-24 02:59 | -4.36320 | 86.78778 | 36881 ft | 488 kts | 132° |
| 2026-04-24 03:00 | -4.40848 | 86.83834 | 36883 ft | 488 kts | 132° |
| 2026-04-24 03:00 | -4.45377 | 86.88894 | 36883 ft | 487 kts | 132° |
| 2026-04-24 03:01 | -4.49905 | 86.93952 | 36881 ft | 488 kts | 132° |
| 2026-04-24 03:01 | -4.54436 | 86.99014 | 36881 ft | 488 kts | 132° |
| 2026-04-24 03:02 | -4.58962 | 87.04075 | 36881 ft | 488 kts | 132° |
| 2026-04-24 03:02 | -4.63493 | 87.09139 | 36883 ft | 488 kts | 132° |
| 2026-04-24 03:03 | -4.68020 | 87.14200 | 36881 ft | 488 kts | 132° |
| 2026-04-24 03:03 | -4.72554 | 87.19270 | 36881 ft | 488 kts | 132° |
| 2026-04-24 03:04 | -4.77083 | 87.24337 | 36881 ft | 488 kts | 132° |
| 2026-04-24 03:04 | -4.81622 | 87.29415 | 36884 ft | 488 kts | 132° |
| 2026-04-24 03:05 | -4.86151 | 87.34483 | 36886 ft | 488 kts | 132° |
| 2026-04-24 03:05 | -4.90679 | 87.39552 | 36886 ft | 487 kts | 132° |
| 2026-04-24 03:06 | -4.94443 | 87.43766 | 36885 ft | 488 kts | 132° |
| 2026-04-24 03:06 | -4.98974 | 87.48839 | 36885 ft | 489 kts | 132° |
| 2026-04-24 03:07 | -5.03517 | 87.53900 | 36885 ft | 489 kts | 133° |
| 2026-04-24 03:07 | -5.08104 | 87.58937 | 36883 ft | 489 kts | 133° |
| 2026-04-24 03:08 | -5.14980 | 87.66489 | 36884 ft | 489 kts | 133° |
| 2026-04-24 03:09 | -5.19557 | 87.71531 | 36887 ft | 488 kts | 133° |
| 2026-04-24 03:09 | -5.24119 | 87.76559 | 36891 ft | 487 kts | 133° |
| 2026-04-24 03:10 | -5.28678 | 87.81585 | 36887 ft | 484 kts | 133° |
| 2026-04-24 03:10 | -5.33180 | 87.86550 | 36889 ft | 479 kts | 133° |
| 2026-04-24 03:11 | -5.37676 | 87.91509 | 36890 ft | 480 kts | 133° |
| 2026-04-24 03:11 | -5.42165 | 87.96462 | 36889 ft | 479 kts | 133° |
| 2026-04-24 03:12 | -5.46646 | 88.01407 | 36888 ft | 479 kts | 133° |
| 2026-04-24 03:12 | -5.51127 | 88.06352 | 36891 ft | 478 kts | 133° |
| 2026-04-24 03:13 | -5.55595 | 88.11286 | 36890 ft | 477 kts | 133° |
| 2026-04-24 03:13 | -5.60063 | 88.16220 | 36892 ft | 478 kts | 133° |
| 2026-04-24 03:14 | -5.64526 | 88.21149 | 36892 ft | 477 kts | 133° |
| 2026-04-24 03:14 | -5.69000 | 88.26092 | 36893 ft | 478 kts | 133° |
| 2026-04-24 03:15 | -5.73471 | 88.31030 | 36890 ft | 477 kts | 132° |
| 2026-04-24 03:15 | -5.77939 | 88.35970 | 36892 ft | 478 kts | 132° |
| 2026-04-24 03:16 | -5.82396 | 88.40899 | 36894 ft | 476 kts | 132° |
| 2026-04-24 03:16 | -5.86823 | 88.45795 | 36896 ft | 476 kts | 132° |
| 2026-04-24 03:17 | -5.91289 | 88.50735 | 36901 ft | 479 kts | 133° |
| 2026-04-24 03:17 | -5.95769 | 88.55691 | 36895 ft | 480 kts | 133° |
| 2026-04-24 03:18 | -6.00255 | 88.60657 | 36890 ft | 480 kts | 133° |
| 2026-04-24 03:18 | -6.04751 | 88.65636 | 36892 ft | 480 kts | 133° |
| 2026-04-24 03:19 | -6.09229 | 88.70594 | 36899 ft | 480 kts | 133° |
| 2026-04-24 03:19 | -6.13725 | 88.75574 | 36894 ft | 481 kts | 133° |
| 2026-04-24 03:20 | -6.18219 | 88.80553 | 36894 ft | 481 kts | 133° |
| 2026-04-24 03:20 | -6.22730 | 88.85552 | 36893 ft | 483 kts | 133° |
| 2026-04-24 03:21 | -6.27236 | 88.90547 | 36895 ft | 482 kts | 132° |
| 2026-04-24 03:21 | -6.31747 | 88.95550 | 36896 ft | 483 kts | 133° |
| 2026-04-24 03:22 | -6.36257 | 89.00554 | 36896 ft | 483 kts | 133° |
| 2026-04-24 03:22 | -6.40759 | 89.05549 | 36891 ft | 482 kts | 132° |
| 2026-04-24 03:23 | -6.45261 | 89.10546 | 36891 ft | 482 kts | 133° |
| 2026-04-24 03:23 | -6.49765 | 89.15546 | 36893 ft | 484 kts | 133° |
| 2026-04-24 03:24 | -6.54297 | 89.20577 | 36894 ft | 486 kts | 133° |
| 2026-04-24 03:24 | -6.58836 | 89.25618 | 36893 ft | 485 kts | 132° |
| 2026-04-24 03:25 | -6.63354 | 89.30639 | 36897 ft | 484 kts | 132° |
| 2026-04-24 03:25 | -6.67874 | 89.35664 | 36896 ft | 484 kts | 132° |
| 2026-04-24 03:26 | -6.72388 | 89.40683 | 36894 ft | 483 kts | 132° |
| 2026-04-24 03:26 | -6.76894 | 89.45694 | 36893 ft | 483 kts | 132° |
| 2026-04-24 03:27 | -6.81399 | 89.50706 | 36895 ft | 482 kts | 132° |
| 2026-04-24 03:27 | -6.85870 | 89.55683 | 36896 ft | 484 kts | 133° |
| 2026-04-24 03:28 | -6.90420 | 89.60746 | 36894 ft | 492 kts | 133° |
| 2026-04-24 03:28 | -6.95014 | 89.65860 | 36895 ft | 492 kts | 133° |
| 2026-04-24 03:29 | -6.99597 | 89.70965 | 36896 ft | 491 kts | 132° |
| 2026-04-24 03:29 | -7.04173 | 89.76065 | 36894 ft | 491 kts | 133° |
| 2026-04-24 03:30 | -7.08757 | 89.81173 | 36897 ft | 492 kts | 132° |
| 2026-04-24 03:30 | -7.13340 | 89.86282 | 36897 ft | 491 kts | 133° |
| 2026-04-24 03:31 | -7.17924 | 89.91395 | 36901 ft | 492 kts | 133° |
| 2026-04-24 03:31 | -7.22510 | 89.96511 | 36897 ft | 492 kts | 133° |
| 2026-04-24 03:32 | -7.27092 | 90.01624 | 36897 ft | 491 kts | 132° |
| 2026-04-24 03:32 | -7.31668 | 90.06733 | 36897 ft | 490 kts | 132° |
| 2026-04-24 03:33 | -7.36231 | 90.11830 | 36897 ft | 490 kts | 132° |
| 2026-04-24 03:33 | -7.40799 | 90.16933 | 36898 ft | 490 kts | 132° |
| 2026-04-24 03:34 | -7.45365 | 90.22035 | 36897 ft | 490 kts | 132° |
| 2026-04-24 03:34 | -7.49930 | 90.27138 | 36897 ft | 490 kts | 132° |
| 2026-04-24 03:35 | -7.54501 | 90.32249 | 36897 ft | 491 kts | 132° |
| 2026-04-24 03:35 | -7.59068 | 90.37359 | 36900 ft | 491 kts | 132° |
| 2026-04-24 03:36 | -7.63641 | 90.42474 | 36898 ft | 492 kts | 132° |
| 2026-04-24 03:36 | -7.68230 | 90.47612 | 36898 ft | 493 kts | 132° |
| 2026-04-24 03:37 | -7.72813 | 90.52743 | 36896 ft | 492 kts | 132° |
| 2026-04-24 03:37 | -7.77391 | 90.57872 | 36897 ft | 492 kts | 132° |
| 2026-04-24 03:38 | -7.81978 | 90.63013 | 36901 ft | 493 kts | 132° |
| 2026-04-24 03:38 | -7.86563 | 90.68152 | 36898 ft | 492 kts | 132° |
| 2026-04-24 03:39 | -7.91147 | 90.73293 | 36902 ft | 494 kts | 132° |
| 2026-04-24 03:39 | -7.95738 | 90.78441 | 36903 ft | 493 kts | 132° |
| 2026-04-24 03:40 | -8.00330 | 90.83596 | 36903 ft | 494 kts | 132° |
| 2026-04-24 03:40 | -8.04937 | 90.88768 | 36909 ft | 497 kts | 132° |
| 2026-04-24 03:41 | -8.09547 | 90.93944 | 36908 ft | 496 kts | 132° |
| 2026-04-24 03:41 | -8.14153 | 90.99118 | 36906 ft | 495 kts | 132° |
| 2026-04-24 03:42 | -8.18752 | 91.04288 | 36903 ft | 496 kts | 132° |
| 2026-04-24 03:42 | -8.23362 | 91.09470 | 36906 ft | 496 kts | 132° |
| 2026-04-24 03:43 | -8.27970 | 91.14652 | 36904 ft | 496 kts | 132° |
| 2026-04-24 03:43 | -8.32593 | 91.19853 | 36906 ft | 499 kts | 132° |
| 2026-04-24 03:44 | -8.37227 | 91.25070 | 36904 ft | 498 kts | 133° |
| 2026-04-24 03:44 | -8.41841 | 91.30265 | 36905 ft | 496 kts | 132° |
| 2026-04-24 03:45 | -8.46453 | 91.35460 | 36908 ft | 497 kts | 132° |
| 2026-04-24 03:45 | -8.51028 | 91.40614 | 36911 ft | 495 kts | 132° |
| 2026-04-24 03:46 | -8.55653 | 91.45829 | 36911 ft | 496 kts | 132° |
| 2026-04-24 03:46 | -8.60225 | 91.50985 | 36909 ft | 496 kts | 133° |
| 2026-04-24 03:47 | -8.64840 | 91.56190 | 36910 ft | 497 kts | 132° |
| 2026-04-24 03:47 | -8.69462 | 91.61406 | 36909 ft | 499 kts | 133° |
| 2026-04-24 03:48 | -8.74127 | 91.66675 | 36911 ft | 499 kts | 133° |
| 2026-04-24 03:48 | -8.78731 | 91.71874 | 36913 ft | 499 kts | 132° |
| 2026-04-24 03:49 | -8.83347 | 91.77089 | 36906 ft | 496 kts | 133° |
| 2026-04-24 03:49 | -8.87208 | 91.81454 | 36911 ft | 498 kts | 132° |
| 2026-04-24 03:50 | -8.91823 | 91.86673 | 36909 ft | 497 kts | 132° |
| 2026-04-24 03:50 | -8.96416 | 91.91869 | 36907 ft | 495 kts | 132° |
| 2026-04-24 03:51 | -9.01010 | 91.97070 | 36910 ft | 497 kts | 132° |
| 2026-04-24 03:51 | -9.05630 | 92.02301 | 36911 ft | 499 kts | 132° |
| 2026-04-24 03:52 | -9.10247 | 92.07529 | 36908 ft | 497 kts | 133° |
| 2026-04-24 03:52 | -9.14861 | 92.12758 | 36909 ft | 499 kts | 133° |
| 2026-04-24 03:53 | -9.19474 | 92.17988 | 36906 ft | 497 kts | 133° |
| 2026-04-24 03:53 | -9.24090 | 92.23222 | 36910 ft | 498 kts | 132° |
| 2026-04-24 03:54 | -9.28690 | 92.28442 | 36911 ft | 497 kts | 133° |
| 2026-04-24 03:54 | -9.33277 | 92.33648 | 36912 ft | 499 kts | 132° |
| 2026-04-24 03:55 | -9.37892 | 92.38888 | 36909 ft | 498 kts | 132° |
| 2026-04-24 03:55 | -9.42493 | 92.44116 | 36908 ft | 496 kts | 132° |
| 2026-04-24 03:56 | -9.47085 | 92.49336 | 36914 ft | 498 kts | 133° |
| 2026-04-24 03:56 | -9.51699 | 92.54582 | 36912 ft | 498 kts | 132° |
| 2026-04-24 03:57 | -9.56300 | 92.59815 | 36911 ft | 497 kts | 133° |
| 2026-04-24 03:57 | -9.60906 | 92.65058 | 36912 ft | 500 kts | 133° |
| 2026-04-24 03:58 | -9.65530 | 92.70321 | 36911 ft | 501 kts | 133° |
| 2026-04-24 03:58 | -9.70152 | 92.75585 | 36913 ft | 499 kts | 132° |
| 2026-04-24 03:59 | -9.74757 | 92.80834 | 36909 ft | 498 kts | 133° |
| 2026-04-24 03:59 | -9.79369 | 92.86093 | 36914 ft | 500 kts | 132° |
| 2026-04-24 04:00 | -9.83971 | 92.91342 | 36911 ft | 497 kts | 132° |
| 2026-04-24 04:00 | -9.88545 | 92.96563 | 36913 ft | 499 kts | 133° |
| 2026-04-24 04:01 | -9.93188 | 93.01862 | 36912 ft | 499 kts | 133° |
| 2026-04-24 04:01 | -9.97809 | 93.07140 | 36916 ft | 501 kts | 132° |
| 2026-04-24 04:02 | -10.02426 | 93.12416 | 36912 ft | 499 kts | 133° |
| 2026-04-24 04:02 | -10.07014 | 93.17662 | 36913 ft | 500 kts | 133° |
| 2026-04-24 04:03 | -10.11636 | 93.22949 | 36915 ft | 501 kts | 133° |
| 2026-04-24 04:03 | -10.16264 | 93.28244 | 36915 ft | 502 kts | 132° |
| 2026-04-24 04:04 | -10.20884 | 93.33533 | 36917 ft | 501 kts | 133° |
| 2026-04-24 04:04 | -10.25512 | 93.38834 | 36914 ft | 503 kts | 133° |
| 2026-04-24 04:05 | -10.30153 | 93.44152 | 36916 ft | 503 kts | 133° |
| 2026-04-24 04:05 | -10.34785 | 93.49463 | 36917 ft | 503 kts | 133° |
| 2026-04-24 04:06 | -10.39427 | 93.54787 | 36912 ft | 503 kts | 133° |
| 2026-04-24 04:06 | -10.44058 | 93.60103 | 36911 ft | 503 kts | 133° |
| 2026-04-24 04:07 | -10.48697 | 93.65429 | 36911 ft | 503 kts | 133° |
| 2026-04-24 04:07 | -10.53328 | 93.70748 | 36911 ft | 503 kts | 133° |
| 2026-04-24 04:08 | -10.57967 | 93.76081 | 36914 ft | 504 kts | 133° |
| 2026-04-24 04:08 | -10.62618 | 93.81428 | 36913 ft | 506 kts | 133° |
| 2026-04-24 04:09 | -10.67183 | 93.86874 | 36911 ft | 507 kts | 129° |
| 2026-04-24 04:09 | -10.71335 | 93.92668 | 36914 ft | 507 kts | 127° |
| 2026-04-24 04:10 | -10.75430 | 93.98512 | 36911 ft | 507 kts | 127° |
| 2026-04-24 04:10 | -10.79586 | 94.04313 | 36911 ft | 507 kts | 128° |
| 2026-04-24 04:11 | -10.85876 | 94.12963 | 36908 ft | 507 kts | 128° |
| 2026-04-24 04:11 | -10.90046 | 94.18690 | 36908 ft | 507 kts | 128° |
| 2026-04-24 04:12 | -10.94238 | 94.24453 | 36911 ft | 506 kts | 128° |
| 2026-04-24 04:12 | -10.98421 | 94.30212 | 36909 ft | 506 kts | 128° |
| 2026-04-24 04:13 | -11.02606 | 94.35977 | 36911 ft | 506 kts | 128° |
| 2026-04-24 04:13 | -11.06787 | 94.41740 | 36911 ft | 506 kts | 128° |
| 2026-04-24 04:14 | -11.10968 | 94.47504 | 36908 ft | 506 kts | 128° |
| 2026-04-24 04:14 | -11.15144 | 94.53266 | 36908 ft | 506 kts | 128° |
| 2026-04-24 04:15 | -11.19325 | 94.59036 | 36908 ft | 506 kts | 127° |
| 2026-04-24 04:15 | -11.23502 | 94.64806 | 36909 ft | 506 kts | 127° |
| 2026-04-24 04:16 | -11.27671 | 94.70569 | 36911 ft | 506 kts | 128° |
| 2026-04-24 04:16 | -11.31862 | 94.76364 | 36909 ft | 509 kts | 128° |
| 2026-04-24 04:17 | -11.36060 | 94.82171 | 36909 ft | 509 kts | 128° |
| 2026-04-24 04:17 | -11.40258 | 94.87982 | 36906 ft | 509 kts | 128° |
| 2026-04-24 04:18 | -11.44454 | 94.93794 | 36906 ft | 509 kts | 128° |
| 2026-04-24 04:18 | -11.48646 | 94.99603 | 36906 ft | 509 kts | 128° |
| 2026-04-24 04:19 | -11.52838 | 95.05416 | 36909 ft | 509 kts | 128° |
| 2026-04-24 04:19 | -11.57028 | 95.11231 | 36912 ft | 509 kts | 128° |
| 2026-04-24 04:20 | -11.61216 | 95.17044 | 36909 ft | 509 kts | 128° |
| 2026-04-24 04:20 | -11.65405 | 95.22864 | 36911 ft | 509 kts | 128° |
| 2026-04-24 04:21 | -11.69599 | 95.28693 | 36914 ft | 510 kts | 128° |
| 2026-04-24 04:21 | -11.73798 | 95.34532 | 36906 ft | 510 kts | 128° |
| 2026-04-24 04:22 | -11.77994 | 95.40372 | 36908 ft | 510 kts | 128° |
| 2026-04-24 04:22 | -11.82192 | 95.46216 | 36908 ft | 510 kts | 128° |
| 2026-04-24 04:23 | -11.86386 | 95.52058 | 36914 ft | 510 kts | 128° |
| 2026-04-24 04:23 | -11.90585 | 95.57911 | 36913 ft | 510 kts | 128° |
| 2026-04-24 04:24 | -11.94778 | 95.63760 | 36912 ft | 510 kts | 128° |
| 2026-04-24 04:24 | -11.98970 | 95.69610 | 36919 ft | 510 kts | 128° |
| 2026-04-24 04:25 | -12.03161 | 95.75465 | 36914 ft | 511 kts | 128° |
| 2026-04-24 04:25 | -12.07357 | 95.81327 | 36914 ft | 511 kts | 128° |
| 2026-04-24 04:26 | -12.11555 | 95.87196 | 36911 ft | 511 kts | 128° |
| 2026-04-24 04:26 | -12.15748 | 95.93063 | 36917 ft | 511 kts | 128° |
| 2026-04-24 04:27 | -12.19940 | 95.98930 | 36914 ft | 511 kts | 128° |
| 2026-04-24 04:27 | -12.24132 | 96.04803 | 36914 ft | 511 kts | 128° |
| 2026-04-24 04:28 | -12.28296 | 96.10639 | 36914 ft | 511 kts | 128° |
| 2026-04-24 04:28 | -12.32492 | 96.16523 | 36914 ft | 513 kts | 128° |
| 2026-04-24 04:29 | -12.36687 | 96.22412 | 36914 ft | 512 kts | 129° |
| 2026-04-24 04:29 | -12.40873 | 96.28291 | 36913 ft | 511 kts | 129° |
| 2026-04-24 04:30 | -12.45058 | 96.34169 | 36914 ft | 511 kts | 129° |
| 2026-04-24 04:30 | -12.49242 | 96.40050 | 36914 ft | 511 kts | 129° |
| 2026-04-24 04:31 | -12.53425 | 96.45936 | 36914 ft | 511 kts | 129° |
| 2026-04-24 04:31 | -12.57605 | 96.51819 | 36914 ft | 512 kts | 129° |
| 2026-04-24 04:32 | -12.61792 | 96.57717 | 36912 ft | 512 kts | 129° |
| 2026-04-24 04:32 | -12.65979 | 96.63620 | 36911 ft | 512 kts | 129° |
| 2026-04-24 04:33 | -12.70164 | 96.69523 | 36923 ft | 512 kts | 129° |
| 2026-04-24 04:33 | -12.74352 | 96.75433 | 36915 ft | 513 kts | 129° |
| 2026-04-24 04:34 | -12.78548 | 96.81358 | 36912 ft | 513 kts | 129° |
| 2026-04-24 04:34 | -12.82738 | 96.87279 | 36917 ft | 514 kts | 129° |
| 2026-04-24 04:35 | -12.86223 | 96.92206 | 36913 ft | 514 kts | 129° |
| 2026-04-24 04:35 | -12.90417 | 96.98140 | 36913 ft | 514 kts | 129° |
| 2026-04-24 04:36 | -12.95290 | 97.05039 | 36912 ft | 514 kts | 129° |
| 2026-04-24 04:36 | -12.99482 | 97.10979 | 36917 ft | 514 kts | 129° |
| 2026-04-24 04:37 | -13.03673 | 97.16921 | 36923 ft | 514 kts | 129° |
| 2026-04-24 04:37 | -13.07183 | 97.21901 | 36916 ft | 515 kts | 129° |
| 2026-04-24 04:38 | -13.11387 | 97.27868 | 36918 ft | 516 kts | 129° |
| 2026-04-24 04:38 | -13.15586 | 97.33832 | 36917 ft | 516 kts | 129° |
| 2026-04-24 04:39 | -13.19781 | 97.39795 | 36902 ft | 516 kts | 129° |
| 2026-04-24 04:39 | -13.23978 | 97.45764 | 36919 ft | 516 kts | 129° |
| 2026-04-24 04:40 | -13.28174 | 97.51736 | 36920 ft | 516 kts | 129° |
| 2026-04-24 04:40 | -13.32342 | 97.57672 | 36903 ft | 516 kts | 129° |
| 2026-04-24 04:41 | -13.36535 | 97.63649 | 36915 ft | 516 kts | 130° |
| 2026-04-24 04:41 | -13.40740 | 97.69646 | 36917 ft | 518 kts | 130° |
| 2026-04-24 04:42 | -13.44957 | 97.75662 | 36916 ft | 520 kts | 130° |
| 2026-04-24 04:42 | -13.49182 | 97.81697 | 36915 ft | 520 kts | 130° |
| 2026-04-24 04:43 | -13.53401 | 97.87727 | 36918 ft | 520 kts | 130° |
| 2026-04-24 04:43 | -13.57620 | 97.93761 | 36917 ft | 520 kts | 130° |
| 2026-04-24 04:44 | -13.61839 | 97.99800 | 36916 ft | 520 kts | 130° |
| 2026-04-24 04:44 | -13.66054 | 98.05836 | 36920 ft | 520 kts | 130° |
| 2026-04-24 04:45 | -13.70273 | 98.11883 | 36920 ft | 520 kts | 130° |
| 2026-04-24 04:45 | -13.74489 | 98.17930 | 36924 ft | 521 kts | 130° |
| 2026-04-24 04:46 | -13.78720 | 98.24000 | 36916 ft | 523 kts | 130° |
| 2026-04-24 04:46 | -13.82955 | 98.30083 | 36918 ft | 523 kts | 130° |
| 2026-04-24 04:47 | -13.87188 | 98.36167 | 36917 ft | 523 kts | 130° |
| 2026-04-24 04:47 | -13.91418 | 98.42252 | 36917 ft | 523 kts | 130° |
| 2026-04-24 04:48 | -13.95647 | 98.48339 | 36920 ft | 523 kts | 130° |
| 2026-04-24 04:48 | -13.99878 | 98.54433 | 36917 ft | 523 kts | 130° |
| 2026-04-24 04:49 | -14.04105 | 98.60526 | 36916 ft | 523 kts | 130° |
| 2026-04-24 04:49 | -14.08335 | 98.66629 | 36926 ft | 524 kts | 131° |
| 2026-04-24 04:50 | -14.12582 | 98.72756 | 36919 ft | 526 kts | 131° |
| 2026-04-24 04:50 | -14.16835 | 98.78900 | 36920 ft | 527 kts | 131° |
| 2026-04-24 04:51 | -14.21091 | 98.85054 | 36921 ft | 527 kts | 131° |
| 2026-04-24 04:51 | -14.25312 | 98.91161 | 36914 ft | 527 kts | 131° |
| 2026-04-24 04:52 | -14.29566 | 98.97320 | 36918 ft | 527 kts | 131° |
| 2026-04-24 04:52 | -14.33842 | 99.03515 | 36921 ft | 527 kts | 131° |
| 2026-04-24 04:53 | -14.38061 | 99.09634 | 36920 ft | 527 kts | 131° |
| 2026-04-24 04:53 | -14.42306 | 99.15794 | 36921 ft | 526 kts | 131° |
| 2026-04-24 04:54 | -14.46545 | 99.21950 | 36920 ft | 526 kts | 131° |
| 2026-04-24 04:54 | -14.50787 | 99.28114 | 36920 ft | 526 kts | 131° |
| 2026-04-24 04:55 | -14.55021 | 99.34273 | 36920 ft | 526 kts | 131° |
| 2026-04-24 04:55 | -14.59255 | 99.40434 | 36916 ft | 526 kts | 130° |
| 2026-04-24 04:56 | -14.63487 | 99.46600 | 36918 ft | 526 kts | 131° |
| 2026-04-24 04:56 | -14.67717 | 99.52766 | 36918 ft | 526 kts | 131° |
| 2026-04-24 04:57 | -14.71943 | 99.58931 | 36917 ft | 526 kts | 131° |
| 2026-04-24 04:57 | -14.76177 | 99.65113 | 36920 ft | 529 kts | 131° |
| 2026-04-24 04:58 | -14.80434 | 99.71330 | 36914 ft | 530 kts | 131° |
| 2026-04-24 04:58 | -14.84688 | 99.77551 | 36919 ft | 530 kts | 131° |
| 2026-04-24 04:59 | -14.88938 | 99.83772 | 36911 ft | 530 kts | 131° |
| 2026-04-24 04:59 | -14.93185 | 99.89994 | 36913 ft | 529 kts | 131° |
| 2026-04-24 05:00 | -14.97425 | 99.96207 | 36915 ft | 529 kts | 131° |
| 2026-04-24 05:00 | -15.01646 | 100.02440 | 36915 ft | 530 kts | 130° |
| 2026-04-24 05:01 | -15.05644 | 100.08863 | 36919 ft | 531 kts | 128° |
| 2026-04-24 05:01 | -15.09577 | 100.15350 | 36916 ft | 533 kts | 128° |
| 2026-04-24 05:02 | -15.13548 | 100.21833 | 36921 ft | 534 kts | 128° |
| 2026-04-24 05:02 | -15.17550 | 100.28313 | 36917 ft | 534 kts | 128° |
| 2026-04-24 05:03 | -15.21551 | 100.34781 | 36914 ft | 534 kts | 128° |
| 2026-04-24 05:03 | -15.25555 | 100.41259 | 36915 ft | 534 kts | 128° |
| 2026-04-24 05:04 | -15.29554 | 100.47736 | 36920 ft | 534 kts | 128° |
| 2026-04-24 05:04 | -15.33552 | 100.54219 | 36928 ft | 534 kts | 128° |
| 2026-04-24 05:05 | -15.37547 | 100.60703 | 36920 ft | 534 kts | 128° |
| 2026-04-24 05:05 | -15.41548 | 100.67202 | 36924 ft | 535 kts | 128° |
| 2026-04-24 05:06 | -15.45524 | 100.73666 | 36923 ft | 536 kts | 128° |
| 2026-04-24 05:06 | -15.49525 | 100.80177 | 36923 ft | 536 kts | 128° |
| 2026-04-24 05:07 | -15.53556 | 100.86741 | 36923 ft | 536 kts | 128° |
| 2026-04-24 05:07 | -15.57529 | 100.93217 | 36922 ft | 536 kts | 128° |
| 2026-04-24 05:08 | -15.61524 | 100.99734 | 36919 ft | 536 kts | 128° |
| 2026-04-24 05:08 | -15.65522 | 101.06261 | 36920 ft | 536 kts | 128° |
| 2026-04-24 05:09 | -15.69516 | 101.12788 | 36922 ft | 536 kts | 128° |
| 2026-04-24 05:09 | -15.73513 | 101.19326 | 36923 ft | 537 kts | 128° |
| 2026-04-24 05:10 | -15.77516 | 101.25879 | 36925 ft | 538 kts | 128° |
| 2026-04-24 05:10 | -15.81518 | 101.32434 | 36918 ft | 538 kts | 128° |
| 2026-04-24 05:11 | -15.85523 | 101.39002 | 36925 ft | 538 kts | 128° |
| 2026-04-24 05:11 | -15.89522 | 101.45567 | 36925 ft | 538 kts | 128° |
| 2026-04-24 05:12 | -15.93522 | 101.52140 | 36925 ft | 538 kts | 128° |
| 2026-04-24 05:12 | -15.97524 | 101.58720 | 36925 ft | 538 kts | 128° |
| 2026-04-24 05:13 | -16.03489 | 101.68539 | 36935 ft | 538 kts | 128° |
| 2026-04-24 05:14 | -16.07494 | 101.75137 | 36922 ft | 540 kts | 128° |
| 2026-04-24 05:14 | -16.11502 | 101.81749 | 36924 ft | 541 kts | 128° |
| 2026-04-24 05:15 | -16.15508 | 101.88366 | 36928 ft | 541 kts | 128° |
| 2026-04-24 05:15 | -16.19513 | 101.94985 | 36926 ft | 541 kts | 128° |
| 2026-04-24 05:16 | -16.23520 | 102.01613 | 36925 ft | 541 kts | 128° |
| 2026-04-24 05:16 | -16.27522 | 102.08236 | 36921 ft | 541 kts | 127° |
| 2026-04-24 05:17 | -16.31525 | 102.14870 | 36928 ft | 541 kts | 127° |
| 2026-04-24 05:17 | -16.35524 | 102.21505 | 36935 ft | 541 kts | 127° |
| 2026-04-24 05:18 | -16.39533 | 102.28161 | 36922 ft | 543 kts | 127° |
| 2026-04-24 05:18 | -16.43545 | 102.34829 | 36925 ft | 543 kts | 127° |
| 2026-04-24 05:19 | -16.47557 | 102.41502 | 36920 ft | 543 kts | 127° |
| 2026-04-24 05:19 | -16.51571 | 102.48181 | 36925 ft | 544 kts | 127° |
| 2026-04-24 05:20 | -16.55582 | 102.54867 | 36930 ft | 544 kts | 127° |
| 2026-04-24 05:20 | -16.59591 | 102.61558 | 36930 ft | 544 kts | 127° |
| 2026-04-24 05:21 | -16.63601 | 102.68253 | 36928 ft | 544 kts | 127° |
| 2026-04-24 05:21 | -16.67607 | 102.74949 | 36934 ft | 545 kts | 127° |
| 2026-04-24 05:22 | -16.70948 | 102.80535 | 36928 ft | 546 kts | 126° |
| 2026-04-24 05:22 | -16.75621 | 102.88358 | 36927 ft | 547 kts | 126° |
| 2026-04-24 05:23 | -16.79639 | 102.95095 | 36929 ft | 547 kts | 126° |
| 2026-04-24 05:23 | -16.83006 | 103.00743 | 36931 ft | 547 kts | 126° |
| 2026-04-24 05:24 | -16.87024 | 103.07489 | 36928 ft | 547 kts | 126° |
| 2026-04-24 05:24 | -16.91035 | 103.14231 | 36920 ft | 547 kts | 126° |
| 2026-04-24 05:25 | -16.95030 | 103.20950 | 36929 ft | 548 kts | 126° |
| 2026-04-24 05:25 | -16.99053 | 103.27727 | 36932 ft | 549 kts | 126° |
| 2026-04-24 05:26 | -17.03080 | 103.34514 | 36933 ft | 550 kts | 126° |
| 2026-04-24 05:26 | -17.07108 | 103.41311 | 36930 ft | 550 kts | 126° |
| 2026-04-24 05:27 | -17.11133 | 103.48110 | 36935 ft | 550 kts | 126° |
| 2026-04-24 05:27 | -17.15159 | 103.54912 | 36933 ft | 551 kts | 125° |
| 2026-04-24 05:28 | -17.19192 | 103.61738 | 36936 ft | 552 kts | 125° |
| 2026-04-24 05:28 | -17.23223 | 103.68569 | 36933 ft | 552 kts | 124° |
| 2026-04-24 05:29 | -17.27250 | 103.75399 | 36967 ft | 552 kts | 124° |
| 2026-04-24 05:29 | -17.31286 | 103.82250 | 36939 ft | 553 kts | 124° |
| 2026-04-24 05:30 | -17.35320 | 103.89104 | 36934 ft | 554 kts | 124° |
| 2026-04-24 05:30 | -17.39362 | 103.95979 | 36941 ft | 554 kts | 124° |
| 2026-04-24 05:31 | -17.43399 | 104.02854 | 36938 ft | 554 kts | 124° |
| 2026-04-24 05:31 | -17.47433 | 104.09730 | 36935 ft | 554 kts | 124° |
| 2026-04-24 05:32 | -17.51465 | 104.16609 | 36946 ft | 554 kts | 124° |
| 2026-04-24 05:32 | -17.55497 | 104.23494 | 36923 ft | 554 kts | 123° |
| 2026-04-24 05:33 | -17.59520 | 104.30372 | 36938 ft | 553 kts | 123° |
| 2026-04-24 05:33 | -17.63533 | 104.37240 | 36942 ft | 553 kts | 123° |
| 2026-04-24 05:34 | -17.69553 | 104.47558 | 36943 ft | 553 kts | 123° |
| 2026-04-24 05:34 | -17.73562 | 104.54438 | 36944 ft | 553 kts | 123° |
| 2026-04-24 05:35 | -17.77572 | 104.61325 | 36941 ft | 553 kts | 123° |
| 2026-04-24 05:35 | -17.81576 | 104.68210 | 36938 ft | 553 kts | 123° |
| 2026-04-24 05:36 | -17.85582 | 104.75106 | 36949 ft | 553 kts | 123° |
| 2026-04-24 05:36 | -17.89585 | 104.82004 | 36940 ft | 555 kts | 123° |
| 2026-04-24 05:37 | -17.93575 | 104.88885 | 36941 ft | 556 kts | 123° |
| 2026-04-24 05:37 | -17.97591 | 104.95818 | 36930 ft | 555 kts | 122° |
| 2026-04-24 05:38 | -18.02056 | 105.02395 | 36942 ft | 552 kts | 131° |
| 2026-04-24 05:38 | -18.07044 | 105.08529 | 36941 ft | 552 kts | 133° |
| 2026-04-24 05:39 | -18.12109 | 105.14578 | 36944 ft | 552 kts | 133° |
| 2026-04-24 05:39 | -18.17180 | 105.20636 | 36971 ft | 552 kts | 133° |
| 2026-04-24 05:40 | -18.22250 | 105.26723 | 36942 ft | 554 kts | 133° |
| 2026-04-24 05:40 | -18.27322 | 105.32834 | 36949 ft | 554 kts | 132° |
| 2026-04-24 05:41 | -18.32387 | 105.38946 | 36949 ft | 554 kts | 132° |
| 2026-04-24 05:41 | -18.37452 | 105.45062 | 36948 ft | 554 kts | 132° |
| 2026-04-24 05:42 | -18.42513 | 105.51178 | 36950 ft | 554 kts | 132° |
| 2026-04-24 05:42 | -18.47569 | 105.57294 | 36987 ft | 554 kts | 132° |
| 2026-04-24 05:43 | -18.52640 | 105.63434 | 36953 ft | 557 kts | 132° |
| 2026-04-24 05:43 | -18.57723 | 105.69592 | 36953 ft | 557 kts | 131° |
| 2026-04-24 05:44 | -18.62799 | 105.75751 | 36957 ft | 556 kts | 131° |
| 2026-04-24 05:44 | -18.67870 | 105.81911 | 36957 ft | 556 kts | 131° |
| 2026-04-24 05:45 | -18.72940 | 105.88074 | 36960 ft | 556 kts | 131° |
| 2026-04-24 05:45 | -18.78011 | 105.94244 | 36975 ft | 557 kts | 131° |
| 2026-04-24 05:46 | -18.83092 | 106.00433 | 36942 ft | 559 kts | 131° |
| 2026-04-24 05:46 | -18.88198 | 106.06658 | 36961 ft | 560 kts | 130° |
| 2026-04-24 05:47 | -18.93291 | 106.12875 | 36963 ft | 560 kts | 130° |
| 2026-04-24 05:47 | -18.98388 | 106.19102 | 36970 ft | 560 kts | 130° |
| 2026-04-24 05:48 | -19.03482 | 106.25332 | 36966 ft | 560 kts | 130° |
| 2026-04-24 05:48 | -19.08571 | 106.31562 | 36985 ft | 561 kts | 130° |
| 2026-04-24 05:49 | -19.13682 | 106.37825 | 36973 ft | 563 kts | 130° |
| 2026-04-24 05:49 | -19.18789 | 106.44090 | 36975 ft | 562 kts | 130° |
| 2026-04-24 05:50 | -19.23886 | 106.50350 | 36975 ft | 562 kts | 130° |
| 2026-04-24 05:50 | -19.28988 | 106.56624 | 36974 ft | 562 kts | 130° |
| 2026-04-24 05:51 | -19.34084 | 106.62894 | 36981 ft | 562 kts | 130° |
| 2026-04-24 05:51 | -19.39186 | 106.69179 | 36976 ft | 564 kts | 130° |
| 2026-04-24 05:52 | -19.44315 | 106.75502 | 36975 ft | 566 kts | 129° |
| 2026-04-24 05:52 | -19.49444 | 106.81835 | 36978 ft | 566 kts | 129° |
| 2026-04-24 05:53 | -19.54573 | 106.88174 | 36982 ft | 566 kts | 129° |
| 2026-04-24 05:53 | -19.59699 | 106.94516 | 36976 ft | 566 kts | 129° |
| 2026-04-24 05:54 | -19.64818 | 107.00856 | 37030 ft | 566 kts | 129° |
| 2026-04-24 05:54 | -19.69952 | 107.07221 | 36977 ft | 569 kts | 129° |
| 2026-04-24 05:55 | -19.75091 | 107.13599 | 36989 ft | 568 kts | 129° |
| 2026-04-24 05:55 | -19.80189 | 107.19933 | 36992 ft | 568 kts | 129° |
| 2026-04-24 05:56 | -19.85348 | 107.26350 | 36989 ft | 568 kts | 129° |
| 2026-04-24 05:56 | -19.90476 | 107.32736 | 36992 ft | 567 kts | 129° |
| 2026-04-24 05:57 | -19.95598 | 107.39122 | 37004 ft | 569 kts | 129° |
| 2026-04-24 05:57 | -20.00701 | 107.45489 | 36995 ft | 569 kts | 128° |
| 2026-04-24 05:58 | -20.05857 | 107.51930 | 36995 ft | 568 kts | 128° |
| 2026-04-24 05:58 | -20.10949 | 107.58299 | 37001 ft | 568 kts | 128° |
| 2026-04-24 05:59 | -20.16070 | 107.64710 | 37000 ft | 568 kts | 128° |
| 2026-04-24 05:59 | -20.21188 | 107.71126 | 37003 ft | 568 kts | 128° |
| 2026-04-24 06:00 | -20.26346 | 107.77598 | 37001 ft | 571 kts | 128° |
| 2026-04-24 06:00 | -20.31450 | 107.84011 | 37005 ft | 572 kts | 128° |
| 2026-04-24 06:01 | -20.36623 | 107.90516 | 37006 ft | 571 kts | 128° |
| 2026-04-24 06:01 | -20.41726 | 107.96942 | 37008 ft | 571 kts | 128° |
| 2026-04-24 06:02 | -20.46856 | 108.03407 | 37007 ft | 571 kts | 128° |
| 2026-04-24 06:02 | -20.51988 | 108.09884 | 37005 ft | 571 kts | 128° |
| 2026-04-24 06:03 | -20.57110 | 108.16356 | 37011 ft | 571 kts | 128° |
| 2026-04-24 06:03 | -20.62236 | 108.22838 | 37012 ft | 571 kts | 128° |
| 2026-04-24 06:04 | -20.67358 | 108.29324 | 37014 ft | 571 kts | 128° |
| 2026-04-24 06:04 | -20.72476 | 108.35812 | 37009 ft | 571 kts | 128° |
| 2026-04-24 06:05 | -20.77593 | 108.42308 | 37034 ft | 571 kts | 128° |
| 2026-04-24 06:05 | -20.82713 | 108.48814 | 37016 ft | 573 kts | 128° |
| 2026-04-24 06:06 | -20.87843 | 108.55340 | 37016 ft | 573 kts | 128° |
| 2026-04-24 06:06 | -20.92971 | 108.61871 | 37014 ft | 573 kts | 128° |
| 2026-04-24 06:07 | -20.97230 | 108.67300 | 37016 ft | 573 kts | 128° |
| 2026-04-24 06:07 | -21.02358 | 108.73846 | 37019 ft | 573 kts | 128° |
| 2026-04-24 06:08 | -21.07481 | 108.80391 | 37024 ft | 574 kts | 128° |
| 2026-04-24 06:08 | -21.12611 | 108.86955 | 37017 ft | 575 kts | 128° |
| 2026-04-24 06:09 | -21.17742 | 108.93527 | 37019 ft | 575 kts | 128° |
| 2026-04-24 06:09 | -21.22875 | 109.00110 | 37020 ft | 575 kts | 128° |
| 2026-04-24 06:10 | -21.28007 | 109.06699 | 37020 ft | 575 kts | 128° |
| 2026-04-24 06:11 | -21.35699 | 109.16590 | 37011 ft | 576 kts | 128° |
| 2026-04-24 06:11 | -21.40834 | 109.23204 | 37027 ft | 578 kts | 128° |
| 2026-04-24 06:12 | -21.45981 | 109.29840 | 37038 ft | 578 kts | 128° |
| 2026-04-24 06:12 | -21.51121 | 109.36475 | 37020 ft | 578 kts | 128° |
| 2026-04-24 06:13 | -21.56258 | 109.43115 | 37024 ft | 578 kts | 128° |
| 2026-04-24 06:13 | -21.61393 | 109.49759 | 37025 ft | 577 kts | 128° |
| 2026-04-24 06:14 | -21.66528 | 109.56413 | 37026 ft | 579 kts | 127° |
| 2026-04-24 06:14 | -21.71636 | 109.63040 | 37026 ft | 580 kts | 127° |
| 2026-04-24 06:15 | -21.76777 | 109.69718 | 37028 ft | 580 kts | 127° |
| 2026-04-24 06:15 | -21.81916 | 109.76400 | 37028 ft | 580 kts | 127° |
| 2026-04-24 06:16 | -21.87056 | 109.83092 | 37061 ft | 579 kts | 127° |
| 2026-04-24 06:16 | -21.92184 | 109.89778 | 37026 ft | 580 kts | 127° |
| 2026-04-24 06:17 | -21.97320 | 109.96482 | 37026 ft | 581 kts | 127° |
| 2026-04-24 06:17 | -22.02487 | 110.03190 | 37026 ft | 581 kts | 129° |
| 2026-04-24 06:18 | -22.07819 | 110.09748 | 37025 ft | 582 kts | 130° |
| 2026-04-24 06:18 | -22.13192 | 110.16270 | 37024 ft | 580 kts | 130° |
| 2026-04-24 06:19 | -22.18524 | 110.22804 | 37028 ft | 580 kts | 129° |
| 2026-04-24 06:19 | -22.23841 | 110.29368 | 37027 ft | 581 kts | 129° |
| 2026-04-24 06:20 | -22.29158 | 110.35952 | 37023 ft | 581 kts | 129° |
| 2026-04-24 06:20 | -22.34472 | 110.42538 | 37033 ft | 581 kts | 129° |
| 2026-04-24 06:21 | -22.39789 | 110.49134 | 37022 ft | 581 kts | 129° |
| 2026-04-24 06:21 | -22.45089 | 110.55716 | 37030 ft | 581 kts | 129° |
| 2026-04-24 06:22 | -22.50394 | 110.62312 | 37025 ft | 582 kts | 129° |
| 2026-04-24 06:22 | -22.55707 | 110.68927 | 37033 ft | 582 kts | 129° |
| 2026-04-24 06:23 | -22.61018 | 110.75547 | 37030 ft | 582 kts | 129° |
| 2026-04-24 06:23 | -22.66320 | 110.82164 | 37055 ft | 582 kts | 129° |
| 2026-04-24 06:24 | -22.71614 | 110.88781 | 37028 ft | 581 kts | 129° |
| 2026-04-24 06:24 | -22.76905 | 110.95403 | 37028 ft | 581 kts | 129° |
| 2026-04-24 06:25 | -22.82192 | 111.02027 | 37028 ft | 581 kts | 129° |
| 2026-04-24 06:25 | -22.87484 | 111.08667 | 37028 ft | 581 kts | 129° |
| 2026-04-24 06:26 | -22.92767 | 111.15304 | 37040 ft | 581 kts | 129° |
| 2026-04-24 06:26 | -22.98049 | 111.21950 | 37028 ft | 582 kts | 129° |
| 2026-04-24 06:27 | -23.03338 | 111.28611 | 37029 ft | 582 kts | 129° |
| 2026-04-24 06:27 | -23.08583 | 111.35226 | 37028 ft | 582 kts | 129° |
| 2026-04-24 06:28 | -23.13866 | 111.41898 | 37028 ft | 582 kts | 129° |
| 2026-04-24 06:28 | -23.19145 | 111.48573 | 37028 ft | 582 kts | 129° |
| 2026-04-24 06:29 | -23.24418 | 111.55250 | 37030 ft | 582 kts | 129° |
| 2026-04-24 06:29 | -23.29692 | 111.61937 | 37031 ft | 582 kts | 129° |
| 2026-04-24 06:30 | -23.34954 | 111.68618 | 37033 ft | 582 kts | 129° |
| 2026-04-24 06:30 | -23.40228 | 111.75323 | 37034 ft | 582 kts | 129° |
| 2026-04-24 06:31 | -23.45493 | 111.82026 | 37027 ft | 583 kts | 129° |
| 2026-04-24 06:31 | -23.50762 | 111.88742 | 37032 ft | 583 kts | 129° |
| 2026-04-24 06:32 | -23.56025 | 111.95459 | 37031 ft | 583 kts | 129° |
| 2026-04-24 06:32 | -23.61287 | 112.02185 | 37031 ft | 583 kts | 129° |
| 2026-04-24 06:33 | -23.66549 | 112.08920 | 37034 ft | 583 kts | 129° |
| 2026-04-24 06:33 | -23.71810 | 112.15662 | 37034 ft | 585 kts | 129° |
| 2026-04-24 06:34 | -23.77085 | 112.22431 | 37036 ft | 586 kts | 129° |
| 2026-04-24 06:34 | -23.82365 | 112.29217 | 37035 ft | 586 kts | 129° |
| 2026-04-24 06:35 | -23.87643 | 112.36010 | 37031 ft | 586 kts | 129° |
| 2026-04-24 06:35 | -23.92913 | 112.42801 | 37064 ft | 586 kts | 129° |
| 2026-04-24 06:36 | -23.98187 | 112.49607 | 37036 ft | 588 kts | 129° |
| 2026-04-24 06:36 | -24.03469 | 112.56432 | 37036 ft | 588 kts | 128° |
| 2026-04-24 06:37 | -24.08751 | 112.63268 | 37037 ft | 588 kts | 128° |
| 2026-04-24 06:37 | -24.14024 | 112.70101 | 37038 ft | 588 kts | 128° |
| 2026-04-24 06:38 | -24.19299 | 112.76947 | 37043 ft | 588 kts | 129° |
| 2026-04-24 06:38 | -24.24548 | 112.83768 | 37037 ft | 590 kts | 128° |
| 2026-04-24 06:39 | -24.29870 | 112.90692 | 37033 ft | 590 kts | 128° |
| 2026-04-24 06:39 | -24.35148 | 112.97571 | 37037 ft | 590 kts | 128° |
| 2026-04-24 06:40 | -24.40391 | 113.04414 | 37037 ft | 590 kts | 128° |
| 2026-04-24 06:40 | -24.45672 | 113.11316 | 37021 ft | 591 kts | 128° |
| 2026-04-24 06:41 | -24.50994 | 113.18281 | 37034 ft | 592 kts | 128° |
| 2026-04-24 06:41 | -24.56239 | 113.25156 | 37034 ft | 592 kts | 128° |
| 2026-04-24 06:42 | -24.61523 | 113.32091 | 37037 ft | 592 kts | 128° |
| 2026-04-24 06:42 | -24.66803 | 113.39032 | 37042 ft | 592 kts | 129° |
| 2026-04-24 06:43 | -24.72090 | 113.45993 | 37031 ft | 593 kts | 129° |
| 2026-04-24 06:43 | -24.77373 | 113.52956 | 37029 ft | 592 kts | 129° |
| 2026-04-24 06:44 | -24.82642 | 113.59912 | 37034 ft | 592 kts | 129° |
| 2026-04-24 06:44 | -24.88088 | 113.66702 | 37027 ft | 592 kts | 138° |
| 2026-04-24 06:45 | -24.94607 | 113.72223 | 37035 ft | 592 kts | 147° |
| 2026-04-24 06:45 | -25.01380 | 113.77396 | 37031 ft | 593 kts | 148° |
| 2026-04-24 06:46 | -25.08202 | 113.82510 | 37021 ft | 592 kts | 148° |
| 2026-04-24 06:46 | -25.14995 | 113.87645 | 37044 ft | 592 kts | 148° |
| 2026-04-24 06:47 | -25.21773 | 113.92813 | 37033 ft | 593 kts | 148° |
| 2026-04-24 06:47 | -25.28558 | 113.98002 | 37033 ft | 593 kts | 148° |
| 2026-04-24 06:48 | -25.35341 | 114.03196 | 37031 ft | 593 kts | 148° |
| 2026-04-24 06:48 | -25.42123 | 114.08395 | 37041 ft | 593 kts | 148° |
| 2026-04-24 06:49 | -25.48906 | 114.13601 | 37027 ft | 594 kts | 148° |
| 2026-04-24 06:49 | -25.55690 | 114.18813 | 37032 ft | 594 kts | 148° |
| 2026-04-24 06:50 | -25.62425 | 114.23996 | 37030 ft | 594 kts | 148° |
| 2026-04-24 06:50 | -25.69212 | 114.29226 | 37023 ft | 594 kts | 148° |
| 2026-04-24 06:51 | -25.75990 | 114.34458 | 37027 ft | 594 kts | 148° |
| 2026-04-24 06:51 | -25.82773 | 114.39699 | 37006 ft | 594 kts | 148° |
| 2026-04-24 06:52 | -25.89556 | 114.44948 | 37044 ft | 595 kts | 148° |
| 2026-04-24 06:52 | -25.95197 | 114.49322 | 37023 ft | 595 kts | 148° |
| 2026-04-24 06:53 | -26.01979 | 114.54584 | 37022 ft | 595 kts | 148° |
| 2026-04-24 06:53 | -26.08760 | 114.59853 | 37022 ft | 595 kts | 148° |
| 2026-04-24 06:54 | -26.15543 | 114.65131 | 37047 ft | 595 kts | 149° |
| 2026-04-24 06:54 | -26.22313 | 114.70409 | 37026 ft | 594 kts | 149° |
| 2026-04-24 06:55 | -26.29084 | 114.75693 | 37028 ft | 594 kts | 148° |
| 2026-04-24 06:55 | -26.35848 | 114.80979 | 37025 ft | 594 kts | 148° |
| 2026-04-24 06:56 | -26.42613 | 114.86275 | 37022 ft | 594 kts | 149° |
| 2026-04-24 06:56 | -26.49387 | 114.91585 | 37028 ft | 595 kts | 149° |
| 2026-04-24 06:57 | -26.56158 | 114.96900 | 37032 ft | 595 kts | 148° |
| 2026-04-24 06:57 | -26.62926 | 115.02221 | 37054 ft | 595 kts | 149° |
| 2026-04-24 06:58 | -26.69690 | 115.07548 | 37036 ft | 595 kts | 149° |
| 2026-04-24 06:58 | -26.76461 | 115.12886 | 37037 ft | 595 kts | 149° |
| 2026-04-24 06:59 | -26.83225 | 115.18228 | 37037 ft | 595 kts | 149° |
| 2026-04-24 06:59 | -26.89987 | 115.23575 | 37050 ft | 596 kts | 149° |
| 2026-04-24 07:00 | -26.96767 | 115.28945 | 37045 ft | 597 kts | 148° |
| 2026-04-24 07:00 | -27.03552 | 115.34328 | 37038 ft | 597 kts | 149° |
| 2026-04-24 07:01 | -27.10322 | 115.39704 | 37043 ft | 596 kts | 149° |
| 2026-04-24 07:01 | -27.17091 | 115.45091 | 37047 ft | 597 kts | 149° |
| 2026-04-24 07:02 | -27.23869 | 115.50493 | 37045 ft | 598 kts | 149° |
| 2026-04-24 07:02 | -27.30655 | 115.55910 | 37045 ft | 598 kts | 149° |
| 2026-04-24 07:03 | -27.37475 | 115.61255 | 37049 ft | 594 kts | 155° |
| 2026-04-24 07:03 | -27.44705 | 115.65665 | 37041 ft | 590 kts | 159° |
| 2026-04-24 07:04 | -27.51962 | 115.69840 | 37051 ft | 589 kts | 160° |
| 2026-04-24 07:04 | -27.59275 | 115.73996 | 37094 ft | 589 kts | 160° |
| 2026-04-24 07:05 | -27.66590 | 115.78176 | 37053 ft | 589 kts | 159° |
| 2026-04-24 07:05 | -27.73895 | 115.82377 | 37059 ft | 589 kts | 159° |
| 2026-04-24 07:06 | -27.81196 | 115.86587 | 37059 ft | 589 kts | 159° |
| 2026-04-24 07:06 | -27.88496 | 115.90803 | 37061 ft | 588 kts | 159° |
| 2026-04-24 07:07 | -27.95777 | 115.95013 | 37067 ft | 588 kts | 159° |
| 2026-04-24 07:07 | -28.06708 | 116.01344 | 37063 ft | 588 kts | 159° |
| 2026-04-24 07:08 | -28.14001 | 116.05575 | 37073 ft | 589 kts | 159° |
| 2026-04-24 07:08 | -28.21286 | 116.09809 | 37077 ft | 589 kts | 159° |
| 2026-04-24 07:09 | -28.28573 | 116.14051 | 37066 ft | 589 kts | 159° |
| 2026-04-24 07:09 | -28.35813 | 116.18273 | 37073 ft | 587 kts | 159° |
| 2026-04-24 07:10 | -28.43070 | 116.22512 | 37075 ft | 587 kts | 159° |
| 2026-04-24 07:10 | -28.50326 | 116.26753 | 37069 ft | 586 kts | 160° |
| 2026-04-24 07:11 | -28.57597 | 116.31006 | 37077 ft | 587 kts | 159° |
| 2026-04-24 07:11 | -28.64844 | 116.35262 | 37081 ft | 586 kts | 159° |
| 2026-04-24 07:12 | -28.72088 | 116.39521 | 37080 ft | 586 kts | 159° |
| 2026-04-24 07:12 | -28.79328 | 116.43781 | 37104 ft | 585 kts | 160° |
| 2026-04-24 07:13 | -28.86545 | 116.48036 | 37084 ft | 583 kts | 160° |
| 2026-04-24 07:13 | -28.93738 | 116.52282 | 37086 ft | 582 kts | 160° |
| 2026-04-24 07:14 | -29.00932 | 116.56534 | 37073 ft | 582 kts | 159° |
| 2026-04-24 07:14 | -29.08122 | 116.60789 | 37090 ft | 581 kts | 160° |
| 2026-04-24 07:15 | -29.15344 | 116.64882 | 37088 ft | 572 kts | 167° |
| 2026-04-24 07:15 | -29.19103 | 116.66160 | 37089 ft | 556 kts | 179° |
| 2026-04-24 07:15 | -29.22871 | 116.66650 | 37096 ft | 539 kts | 189° |
| 2026-04-24 07:16 | -29.30309 | 116.66689 | 37097 ft | 531 kts | 193° |
| 2026-04-24 07:16 | -29.37671 | 116.66435 | 37097 ft | 529 kts | 194° |
| 2026-04-24 07:17 | -29.44974 | 116.66174 | 37100 ft | 529 kts | 193° |
| 2026-04-24 07:17 | -29.52335 | 116.65952 | 37131 ft | 529 kts | 193° |
| 2026-04-24 07:18 | -29.59679 | 116.65757 | 37102 ft | 526 kts | 193° |
| 2026-04-24 07:18 | -29.66993 | 116.65566 | 37110 ft | 525 kts | 193° |
| 2026-04-24 07:19 | -29.74298 | 116.65369 | 37107 ft | 525 kts | 193° |
| 2026-04-24 07:19 | -29.81601 | 116.65171 | 37112 ft | 524 kts | 192° |
| 2026-04-24 07:20 | -29.88875 | 116.64979 | 37111 ft | 522 kts | 192° |
| 2026-04-24 07:20 | -29.94290 | 116.64833 | 37111 ft | 522 kts | 192° |
| 2026-04-24 07:31 | -29.94425 | 116.64829 | 37553 ft | 522 kts | 192° |
| 2026-04-24 07:31 | -29.98072 | 116.64728 | 37079 ft | 523 kts | 192° |
| 2026-04-24 07:32 | -30.05342 | 116.64527 | 37123 ft | 522 kts | 191° |
| 2026-04-24 07:32 | -30.12588 | 116.64335 | 37115 ft | 520 kts | 191° |
| 2026-04-24 07:33 | -30.19817 | 116.64142 | 37119 ft | 520 kts | 191° |
| 2026-04-24 07:33 | -30.27044 | 116.63946 | 37109 ft | 519 kts | 191° |
| 2026-04-24 07:34 | -30.30600 | 116.63859 | 36618 ft | 504 kts | 191° |
| 2026-04-24 07:34 | -30.34092 | 116.63773 | 35484 ft | 502 kts | 190° |
| 2026-04-24 07:34 | -30.37584 | 116.63675 | 34260 ft | 502 kts | 189° |
| 2026-04-24 07:34 | -30.41029 | 116.63576 | 33012 ft | 500 kts | 188° |
| 2026-04-24 07:35 | -30.44537 | 116.63479 | 31792 ft | 496 kts | 188° |
| 2026-04-24 07:35 | -30.47933 | 116.63386 | 30665 ft | 492 kts | 188° |
| 2026-04-24 07:35 | -30.51327 | 116.63291 | 29510 ft | 485 kts | 188° |
| 2026-04-24 07:35 | -30.54644 | 116.62937 | 28311 ft | 471 kts | 196° |
| 2026-04-24 07:36 | -30.57789 | 116.62120 | 27197 ft | 457 kts | 202° |
| 2026-04-24 07:36 | -30.60808 | 116.61096 | 26149 ft | 448 kts | 204° |
| 2026-04-24 07:36 | -30.63754 | 116.60008 | 25139 ft | 440 kts | 205° |
| 2026-04-24 07:36 | -30.66092 | 116.59105 | 24333 ft | 433 kts | 206° |
| 2026-04-24 07:39 | -30.68621 | 116.58109 | 23420 ft | 427 kts | 206° |
| 2026-04-24 07:45 | -30.69410 | 116.57797 | 23095 ft | 425 kts | 206° |
| 2026-04-24 07:45 | -30.72194 | 116.56693 | 21948 ft | 419 kts | 206° |
| 2026-04-24 07:46 | -30.74926 | 116.55612 | 20971 ft | 411 kts | 206° |
| 2026-04-24 07:46 | -30.77577 | 116.54575 | 20489 ft | 394 kts | 206° |
| 2026-04-24 07:46 | -30.80121 | 116.53583 | 20061 ft | 388 kts | 206° |
| 2026-04-24 07:46 | -30.82668 | 116.52589 | 19609 ft | 384 kts | 206° |
| 2026-04-24 07:47 | -30.85185 | 116.51602 | 19147 ft | 380 kts | 206° |
| 2026-04-24 07:47 | -30.87440 | 116.50715 | 18751 ft | 377 kts | 206° |
| 2026-04-24 07:47 | -30.89910 | 116.49744 | 18289 ft | 373 kts | 206° |
| 2026-04-24 07:47 | -30.92353 | 116.48786 | 17825 ft | 368 kts | 205° |
| 2026-04-24 07:48 | -30.94765 | 116.47842 | 17392 ft | 363 kts | 205° |
| 2026-04-24 07:48 | -30.97138 | 116.46914 | 16963 ft | 358 kts | 205° |
| 2026-04-24 07:48 | -30.99483 | 116.45996 | 16545 ft | 353 kts | 205° |
| 2026-04-24 07:48 | -31.01794 | 116.45091 | 16123 ft | 348 kts | 205° |
| 2026-04-24 07:49 | -31.04078 | 116.44197 | 15708 ft | 344 kts | 205° |
| 2026-04-24 07:49 | -31.06336 | 116.43313 | 15293 ft | 341 kts | 205° |
| 2026-04-24 07:49 | -31.08572 | 116.42432 | 14882 ft | 337 kts | 205° |
| 2026-04-24 07:49 | -31.10776 | 116.41564 | 14477 ft | 333 kts | 204° |
| 2026-04-24 07:50 | -31.12965 | 116.40702 | 14070 ft | 330 kts | 204° |
| 2026-04-24 07:50 | -31.15131 | 116.39850 | 13647 ft | 327 kts | 204° |
| 2026-04-24 07:50 | -31.17274 | 116.39008 | 13229 ft | 322 kts | 204° |
| 2026-04-24 07:50 | -31.19389 | 116.38176 | 12849 ft | 319 kts | 204° |
| 2026-04-24 07:51 | -31.21485 | 116.37350 | 12463 ft | 318 kts | 204° |
| 2026-04-24 07:51 | -31.23575 | 116.36526 | 12067 ft | 316 kts | 203° |
| 2026-04-24 07:51 | -31.25647 | 116.35710 | 11678 ft | 313 kts | 203° |
| 2026-04-24 07:51 | -31.27704 | 116.34900 | 11287 ft | 311 kts | 203° |
| 2026-04-24 07:52 | -31.29743 | 116.34096 | 10894 ft | 308 kts | 203° |
| 2026-04-24 07:52 | -31.31772 | 116.33295 | 10524 ft | 306 kts | 202° |
| 2026-04-24 07:52 | -31.33756 | 116.32514 | 10359 ft | 295 kts | 202° |
| 2026-04-24 07:52 | -31.35662 | 116.31765 | 10233 ft | 283 kts | 202° |
| 2026-04-24 07:53 | -31.37494 | 116.31044 | 10118 ft | 272 kts | 203° |
| 2026-04-24 07:53 | -31.39313 | 116.30321 | 9908 ft | 282 kts | 202° |
| 2026-04-24 07:53 | -31.41164 | 116.29566 | 9565 ft | 281 kts | 205° |
| 2026-04-24 07:53 | -31.42927 | 116.28591 | 9127 ft | 279 kts | 211° |
| 2026-04-24 07:54 | -31.44628 | 116.27513 | 8982 ft | 278 kts | 212° |
| 2026-04-24 07:54 | -31.46324 | 116.26419 | 8976 ft | 279 kts | 212° |
| 2026-04-24 07:54 | -31.48026 | 116.25324 | 8984 ft | 278 kts | 212° |
| 2026-04-24 07:54 | -31.49672 | 116.24271 | 8980 ft | 261 kts | 212° |
| 2026-04-24 07:55 | -31.51218 | 116.23285 | 8978 ft | 247 kts | 212° |
| 2026-04-24 07:55 | -31.52717 | 116.22326 | 8982 ft | 244 kts | 212° |
| 2026-04-24 07:55 | -31.54208 | 116.21369 | 8985 ft | 244 kts | 212° |
| 2026-04-24 07:55 | -31.55698 | 116.20413 | 8986 ft | 244 kts | 212° |
| 2026-04-24 07:56 | -31.57189 | 116.19456 | 8987 ft | 244 kts | 212° |
| 2026-04-24 07:56 | -31.58679 | 116.18500 | 8968 ft | 243 kts | 212° |
| 2026-04-24 07:56 | -31.60150 | 116.17558 | 8639 ft | 240 kts | 212° |
| 2026-04-24 07:56 | -31.61610 | 116.16623 | 8092 ft | 240 kts | 212° |
| 2026-04-24 07:57 | -31.63073 | 116.15684 | 7567 ft | 239 kts | 212° |
| 2026-04-24 07:57 | -31.64531 | 116.14750 | 7073 ft | 238 kts | 212° |
| 2026-04-24 07:57 | -31.65986 | 116.13826 | 6582 ft | 237 kts | 211° |
| 2026-04-24 07:57 | -31.67439 | 116.12892 | 5942 ft | 240 kts | 212° |
| 2026-04-24 07:58 | -31.68884 | 116.11961 | 5317 ft | 240 kts | 211° |
| 2026-04-24 07:58 | -31.70349 | 116.11019 | 4716 ft | 241 kts | 211° |
| 2026-04-24 07:58 | -31.71840 | 116.10067 | 4374 ft | 238 kts | 211° |
| 2026-04-24 07:58 | -31.73277 | 116.09142 | 4165 ft | 232 kts | 211° |
| 2026-04-24 07:59 | -31.74633 | 116.08249 | 4002 ft | 222 kts | 213° |
| 2026-04-24 07:59 | -31.75774 | 116.07104 | 3869 ft | 211 kts | 229° |
| 2026-04-24 07:59 | -31.76670 | 116.05789 | 3753 ft | 201 kts | 233° |
| 2026-04-24 07:59 | -31.77487 | 116.04510 | 3639 ft | 190 kts | 233° |
| 2026-04-24 08:00 | -31.78263 | 116.03294 | 3444 ft | 183 kts | 233° |
| 2026-04-24 08:00 | -31.79020 | 116.02111 | 3152 ft | 180 kts | 233° |
| 2026-04-24 08:00 | -31.79838 | 116.00993 | 2803 ft | 182 kts | 221° |
| 2026-04-24 08:00 | -31.80942 | 116.00318 | 2496 ft | 178 kts | 200° |
| 2026-04-24 08:01 | -31.82114 | 115.99978 | 2224 ft | 168 kts | 196° |
| 2026-04-24 08:01 | -31.83206 | 115.99667 | 2005 ft | 156 kts | 197° |
| 2026-04-24 08:01 | -31.84211 | 115.99370 | 1797 ft | 143 kts | 197° |
| 2026-04-24 08:01 | -31.85151 | 115.99096 | 1614 ft | 135 kts | 198° |
| 2026-04-24 08:02 | -31.86041 | 115.98835 | 1432 ft | 131 kts | 197° |
| 2026-04-24 08:02 | -31.86919 | 115.98579 | 1261 ft | 129 kts | 198° |
| 2026-04-24 08:02 | -31.87800 | 115.98321 | 1090 ft | 130 kts | 197° |
| 2026-04-24 08:02 | -31.88667 | 115.98069 | 928 ft | 128 kts | 199° |
| 2026-04-24 08:03 | -31.89527 | 115.97818 | 735 ft | 126 kts | 198° |
| 2026-04-24 08:03 | -31.90391 | 115.97551 | 601 ft | 130 kts | 195° |
| 2026-04-24 08:03 | -31.91263 | 115.97316 | 412 ft | 128 kts | 194° |
| 2026-04-24 08:03 | -31.92140 | 115.97068 | 240 ft | 130 kts | 199° |
| 2026-04-24 08:04 | -31.93020 | 115.96800 | 84 ft | 131 kts | 198° |
| 2026-04-24 08:04 | -31.93810 | 115.96565 | 61 ft | 92 kts | 193° |
| 2026-04-24 08:04 | -31.94235 | 115.96441 | 60 ft | 39 kts | 195° |
| 2026-04-24 08:04 | -31.94355 | 115.96407 | 62 ft | 11 kts | 193° |
| 2026-04-24 08:05 | -31.94435 | 115.96418 | 59 ft | 14 kts | 144° |
| 2026-04-24 08:05 | -31.94483 | 115.96540 | 57 ft | 15 kts | 104° |
| 2026-04-24 08:05 | -31.94500 | 115.96620 | 60 ft | 10 kts | 105° |
| 2026-04-24 08:05 | -31.94510 | 115.96692 | 69 ft | 4 kts | 72° |
| 2026-04-24 08:06 | -31.94484 | 115.96720 | 62 ft | 7 kts | 32° |
| 2026-04-24 08:06 | -31.94418 | 115.96748 | 65 ft | 13 kts | 11° |
| 2026-04-24 08:06 | -31.94310 | 115.96777 | 64 ft | 17 kts | 15° |
| 2026-04-24 08:06 | -31.94186 | 115.96813 | 64 ft | 20 kts | 13° |
| 2026-04-24 08:07 | -31.94107 | 115.96836 | 63 ft | 8 kts | 14° |
| 2026-04-24 08:07 | -31.94037 | 115.96856 | 64 ft | 13 kts | 14° |
| 2026-04-24 08:07 | -31.93947 | 115.96884 | 63 ft | 11 kts | 19° |
| 2026-04-24 08:07 | -31.93915 | 115.96928 | 63 ft | 5 kts | 74° |
| 2026-04-24 08:08 | -31.93919 | 115.96965 | 63 ft | 6 kts | 104° |
| 2026-04-24 08:08 | -31.93934 | 115.97030 | 63 ft | 9 kts | 103° |
| 2026-04-24 08:08 | -31.93943 | 115.97077 | 70 ft | 4 kts | 104° |
| 2026-04-24 08:09 | -31.93988 | 115.97139 | 63 ft | 5 kts | 193° |
| 2026-04-24 08:09 | -31.94025 | 115.97128 | 65 ft | 5 kts | 194° |
| 2026-04-24 08:09 | -31.94043 | 115.97123 | 65 ft | 1 kts | 194° |
| 2026-04-24 08:09 | -31.94050 | 115.97121 | 67 ft | 1 kts | 194° |
| 2026-04-24 08:10 | -31.94055 | 115.97120 | 65 ft | 0 kts | 194° |